Graceful Lady — 00 — position and weather

sailwx.info

Track history (hours):
 
Tides and Currents Weather Stations Pressure Air Temp Water Temp Dewpoint Dewpoint Depression Visibility Wind Speed Wind Dir Waves Ship Positions

Graceful Lady

Last reported at 2016-Jul-27 22:33 UTC. Time now 2016-Jul-27 22:57 UTC.
Position N 37°59' E 120°56'.

Length 6 m.

Type: Pollution control. MMSI: 316014038.

Date/timePositionNaut miles runAvg speedWind from/ knotsBaromVisibWave heightAir tempDewpointWater temp
2016-Jul-27 22:33N 37°59' E 120°56'6760478.9
2016-Jul-27 22:33N 38°58' E 121°38'543195570.2
2016-Jul-27 22:33N 29°56' E 122°18'62820365.2
2016-Jul-27 22:31N 23°02' E 113°31'282847.7
2016-Jul-27 22:11N 24°35' E 118°21'8791386.3
2016-Jul-27 21:33N 38°58' E 121°38'104376660.6
2016-Jul-27 21:32N 23°02' E 113°31'2825364.3
2016-Jul-27 21:29N 24°35' E 118°21'8096054.1
2016-Jul-27 21:21N 37°52' E 121°03'48013710.6
2016-Jul-27 21:19N 29°54' E 121°59'5448136208.8
2016-Jul-27 21:17N 49°18' W 122°54'539427236.7
2016-Jul-27 21:05N 31°42' E 121°10'364697.6
2016-Jul-27 20:33N 37°46' E 121°08'50841016842.1
2016-Jul-27 20:33N 49°18' W 123°05'53861292617.6
2016-Jul-27 20:33N 31°42' E 121°10'436261637.7
2016-Jul-27 20:33N 38°58' E 121°38'5834466737.6
2016-Jul-27 20:32N 33°37' W 117°55'6821522445.4
2016-Jul-27 20:31N 23°02' E 113°31'2827920.7
2016-Jul-27 20:29N 24°35' E 118°21'4434237.4
2016-Jul-27 20:23N 31°23' E 121°34'4135.0
2016-Jul-27 20:21N 31°19' E 121°33'53856752.7
2016-Jul-27 19:33N 49°18' W 123°07'50012000540.4
2016-Jul-27 19:33N 38°58' E 121°38'1043197703.7
2016-Jul-27 19:33N 23°02' E 113°31'66344175.3
2016-Jul-27 19:32N 31°24' E 121°37'6298.3
2016-Jul-27 19:31N 31°22' E 121°30'27273.6
2016-Jul-27 19:25N 31°42' E 121°10'1192049.0
2016-Jul-27 19:21N 29°54' E 122°08'101937.9
2016-Jul-27 19:21N 29°56' E 122°19'4713464.4
2016-Jul-27 19:13N 37°43' E 121°07'79120.0
2016-Jul-27 18:33N 38°58' E 121°38'50021800558.4
2016-Jul-27 18:33N 49°18' W 123°07'5379430330.6
2016-Jul-27 18:33N 31°24' E 121°37'1220914.3
2016-Jul-27 18:32N 31°14' E 121°30'651260454.0
2016-Jul-27 18:32N 23°02' E 113°31'62926626.2
2016-Jul-27 18:31N 29°56' E 122°19'47115686.2
2016-Jul-27 18:29N 37°43' E 121°07'37733139.1
2016-Jul-27 18:28N 31°26' E 121°29'23723.8
2016-Jul-27 18:27N 31°42' E 121°10'4532878.8
2016-Jul-27 18:17N 24°35' E 118°21'445612.3
2016-Jul-27 17:33N 31°30' E 121°23'53832153327.7
2016-Jul-27 17:33N 49°19' W 123°08'61791112270.0
2016-Jul-27 17:33N 23°02' E 113°31'1043129532.1
2016-Jul-27 17:32N 38°58' E 121°38'45496181.2
2016-Jul-27 17:32N 31°24' E 121°37'9205.2
2016-Jul-27 17:29N 31°15' E 121°32'332398.1
2016-Jul-27 17:29N 31°42' E 121°10'611038251.9
2016-Jul-27 17:19N 33°37' W 117°55'6113323652.2
2016-Jul-27 17:18N 29°56' E 122°19'3853385.3
2016-Jul-27 17:11N 24°35' E 118°21'444709.4
2016-Jul-27 16:34N 31°24' E 121°37'454327020.2
2016-Jul-27 16:33N 38°58' E 121°38'50002000126.5
2016-Jul-27 16:33N 49°19' W 123°08'5383403717.3
2016-Jul-27 16:33N 31°42' E 121°10'66134008.2
2016-Jul-27 16:31N 23°01' E 113°32'966248320.8
2016-Jul-27 16:31N 37°43' E 121°07'59025311896.7
2016-Jul-27 16:31N 33°37' W 117°55'61041997577.7
2016-Jul-27 16:31N 31°18' E 121°34'43814720.7
2016-Jul-27 16:29N 24°35' E 118°21'440473.7
2016-Jul-27 15:33N 31°21' E 121°32'51593.9
2016-Jul-27 15:33N 31°24' E 121°37'663198821.4
2016-Jul-27 15:33N 23°01' E 113°32'1044751586.8
2016-Jul-27 15:33N 38°58' E 121°38'50126014996.6
2016-Jul-27 15:33N 49°18' W 122°52'53951213979.3
2016-Jul-27 15:33N 31°42' E 121°10'45410554.2
2016-Jul-27 15:30N 24°37' E 118°09'12715.6
2016-Jul-27 15:29N 24°35' E 118°21'651039058.7
2016-Jul-27 15:19N 33°37' W 117°55'58347645.8
2016-Jul-27 14:33N 38°58' E 121°38'455818381.2
2016-Jul-27 14:33N 31°23' E 121°30'67208.3
2016-Jul-27 14:33N 31°24' E 121°37'66379528.6
2016-Jul-27 14:33N 23°01' E 113°32'6614320.5
2016-Jul-27 14:24N 31°42' E 121°10'31810305.3
2016-Jul-27 14:22N 36°54' E 122°27'5865134491.9
2016-Jul-27 14:19N 33°37' W 117°55'61038012.2
2016-Jul-27 13:33N 31°26' E 121°29'76334.6
2016-Jul-27 13:33N 31°24' E 121°37'45438931.0
2016-Jul-27 13:33N 38°58' E 121°38'104438347.4
2016-Jul-27 13:31N 23°01' E 113°32'663689.0
2016-Jul-27 12:33N 31°24' E 121°37'663298220.4
2016-Jul-27 12:33N 23°01' E 113°32'660593625.4
2016-Jul-27 12:33N 31°29' E 121°24'44256.0
2016-Jul-27 12:23N 32°01' E 120°48'4149.3
2016-Jul-27 11:33N 31°31' E 121°21'167099.5
2016-Jul-27 11:33N 31°24' E 121°37'66335610.3
2016-Jul-27 11:32N 23°01' E 113°32'10445772.6
2016-Jul-27 11:21N 38°58' E 121°38'5834166692.1
2016-Jul-27 11:19N 33°37' W 117°55'6125185286.0
2016-Jul-27 11:17N 29°55' E 122°06'619849.2
2016-Jul-27 10:33N 23°01' E 113°32'66382267.8
2016-Jul-27 10:33N 31°24' E 121°37'186594.3
2016-Jul-27 10:33N 31°33' E 121°19'6107226648.4
2016-Jul-27 10:31N 33°37' W 117°55'611859047.9
2016-Jul-27 10:25N 32°00' E 120°47'4201744.0
2016-Jul-27 10:10N 38°58' E 121°38'10441663.5
2016-Jul-27 09:33N 23°01' E 113°32'6602376405.2
2016-Jul-27 09:33N 31°35' E 121°17'6107215552.2
2016-Jul-27 09:31N 33°37' W 117°55'6096124700.4
2016-Jul-27 09:28N 31°21' E 121°40'882340.8
2016-Jul-27 09:26N 29°54' E 121°59'109125.1
2016-Jul-27 08:33N 31°37' E 121°16'6108159330.3
2016-Jul-27 08:31N 33°37' W 117°55'6821191827.3
2016-Jul-27 08:29N 23°01' E 113°32'661216405.0
2016-Jul-27 08:29N 31°42' E 121°09'4 3.9
2016-Jul-27 07:33N 31°40' E 121°12'6109192914.3
2016-Jul-27 07:31N 33°37' W 117°55'589132878.0
2016-Jul-27 07:20N 37°36' E 121°26'96617653.2
2016-Jul-27 07:17N 23°01' E 113°32'6615447.5
2016-Jul-27 07:10N 31°42' E 121°10'0 0.0
2016-Jul-27 06:33N 31°42' E 121°10'35336358.1
2016-Jul-27 06:33N 37°36' E 121°25'965579262.7
2016-Jul-27 06:33N 23°01' E 113°32'661216167.2
2016-Jul-27 06:33N 31°43' E 121°07'611249220.5
2016-Jul-27 06:25N 33°37' W 117°55'651027668.5
2016-Jul-27 06:11N 24°35' E 118°21'281429.7
2016-Jul-27 05:32N 23°01' E 113°32'2816096.8
2016-Jul-27 05:29N 24°35' E 118°21'651057159.0
2016-Jul-27 05:22N 33°37' W 117°55'611084595.5
2016-Jul-27 05:18N 31°42' E 121°10'1102686.4
2016-Jul-27 05:15N 29°58' E 121°51'6 9.0
2016-Jul-27 04:33N 29°58' E 121°59'1132598.1
2016-Jul-27 04:31N 31°42' E 121°10'45316798.3
2016-Jul-27 04:29N 24°35' E 118°21'442476.5
2016-Jul-27 03:33N 31°21' E 121°39'9017987.6
2016-Jul-27 03:33N 29°55' E 122°08'3785647.5
2016-Jul-27 03:29N 24°35' E 118°21'4534156.8
2016-Jul-27 03:22N 31°42' E 121°10'113629.8
2016-Jul-27 03:12N 29°59' E 122°02'113160.3
2016-Jul-27 02:29N 31°42' E 121°10'3128.1
2016-Jul-27 01:24N 31°60' E 120°40'315813.6
2016-Jul-27 01:24N 31°42' E 121°10'116716.1
2016-Jul-27 01:14N 29°54' E 121°59'61323480.0
2016-Jul-26 23:28N 33°37' W 117°55'613218152.8
2016-Jul-26 23:08N 29°54' E 121°59'0 0.0
2016-Jul-26 22:32N 29°54' E 121°59'4201511.6
2016-Jul-26 22:15N 36°54' E 122°27'586541321.2
2016-Jul-26 22:07N 33°37' W 117°55'613210576.8
2016-Jul-26 21:32N 29°54' E 121°59'512.5
2016-Jul-26 21:07N 29°50' E 122°03'4 7.8
2016-Jul-26 20:33N 29°46' E 122°00'19105.2
2016-Jul-26 20:23N 29°56' E 122°19'1222882.7
2016-Jul-26 20:20N 31°42' E 121°10'116577.2
2016-Jul-26 20:08N 29°54' E 121°59'0 0.0
2016-Jul-26 19:32N 29°54' E 121°59'17348.2
2016-Jul-26 19:29N 29°56' E 122°19'122792.0
2016-Jul-26 19:20N 31°42' E 121°10'116129.9
2016-Jul-26 18:26N 29°54' E 121°59'0 0.0
2016-Jul-26 17:32N 29°54' E 121°59'17771.5
2016-Jul-26 17:31N 29°56' E 122°19'1222008.6
2016-Jul-26 17:27N 31°42' E 121°10'6110166627.6
2016-Jul-26 17:25N 33°37' W 117°55'61106742.7
2016-Jul-26 16:30N 31°42' E 121°10'4531513.0
2016-Jul-26 16:12N 24°35' E 118°21'373552.8
2016-Jul-26 15:32N 29°54' E 121°59'6132329459.7
2016-Jul-26 15:31N 33°37' W 117°55'6110177377.7
2016-Jul-26 15:29N 31°42' E 121°10'0 0.0
2016-Jul-26 14:21N 31°42' E 121°10'0 0.0
2016-Jul-26 13:31N 31°42' E 121°10'0 0.0
2016-Jul-26 12:14N 31°42' E 121°10'0 0.1
2016-Jul-26 11:19N 31°42' E 121°09'12568.6
2016-Jul-26 09:30N 29°45' E 121°58'125355.8
2016-Jul-26 09:09N 31°42' E 121°09'125212.6
2016-Jul-26 08:33N 29°45' E 121°58'1258648.7
2016-Jul-26 08:33N 31°42' E 121°09'116556.1
2016-Jul-26 08:20N 29°54' E 121°59'11015291.9
2016-Jul-26 08:20N 31°38' E 121°16'115675.0
2016-Jul-26 08:09N 29°56' E 122°19'111183.4
2016-Jul-26 07:33N 31°35' E 121°20'1155164.0
2016-Jul-26 07:32N 29°45' E 121°58'1251093.4
2016-Jul-26 07:25N 31°42' E 121°10'1719.9
2016-Jul-26 06:33N 31°31' E 121°24'1101478.2
2016-Jul-26 06:29N 29°45' E 121°58'125127.3
2016-Jul-26 05:30N 31°42' E 121°10'23695.9
2016-Jul-26 05:28N 31°27' E 121°30'6 6.4
2016-Jul-26 04:33N 31°23' E 121°34'3177.8
2016-Jul-26 04:32N 31°23' E 121°30'263477.5
2016-Jul-26 04:32N 31°42' E 121°10'4533763.5
2016-Jul-26 04:24N 24°35' E 118°21'0 0.0
2016-Jul-26 03:24N 24°35' E 118°21'453425.3
2016-Jul-26 02:21N 31°42' E 121°10'32309.5
2016-Jul-26 02:14N 31°15' E 121°30'3234.9
2016-Jul-26 01:19N 31°42' E 121°10'1223774.5
2016-Jul-26 01:17N 29°56' E 122°19'122148.7
2016-Jul-26 00:28N 31°42' E 121°10'291223.5
2016-Jul-26 00:26N 31°21' E 121°31'941974.9
2016-Jul-26 00:23N 29°56' E 122°19'629754.2
2016-Jul-25 23:33N 23°02' E 113°31'682149011.7
2016-Jul-25 23:25N 33°37' W 117°55'610355765.2
2016-Jul-25 23:18N 31°26' E 121°29'951307.6
2016-Jul-25 23:14N 29°54' E 121°59'614897.7
2016-Jul-25 22:33N 23°06' E 113°27'6149170.5
2016-Jul-25 22:29N 29°54' E 121°59'614654.1
2016-Jul-25 21:33N 23°06' E 113°27'0 0.0
2016-Jul-25 20:33N 23°06' E 113°27'2841158.6
2016-Jul-25 20:18N 24°35' E 118°21'7575525.6
2016-Jul-25 20:10N 36°42' E 122°23'9401534.3
2016-Jul-25 19:33N 23°06' E 113°27'943113175.1
2016-Jul-25 19:33N 36°45' E 122°26'76017876.4
2016-Jul-25 19:30N 24°35' E 118°21'4534084.4
2016-Jul-25 19:24N 31°42' E 121°09'11611980.9
2016-Jul-25 19:23N 29°54' E 121°59'416502.9
2016-Jul-25 18:33N 36°49' E 122°31'949379498.6
2016-Jul-25 18:33N 23°06' E 113°27'2841131.6
2016-Jul-25 18:18N 24°35' E 118°21'4532130.0
2016-Jul-25 18:06N 31°42' E 121°10'319592.9
2016-Jul-25 17:33N 36°53' E 122°36'95571590.2
2016-Jul-25 17:32N 23°06' E 113°27'6601893.7
2016-Jul-25 17:12N 31°42' E 121°10'6601039.6
2016-Jul-25 16:33N 23°06' E 113°27'960432177.6
2016-Jul-25 16:33N 36°59' E 122°39'3254585.1
2016-Jul-25 16:29N 31°42' E 121°10'1226438.9
2016-Jul-25 16:28N 29°56' E 122°19'3851065.1
2016-Jul-25 16:06N 24°35' E 118°21'7811427.3
2016-Jul-25 15:33N 37°04' E 122°40'96593922.5
2016-Jul-25 15:33N 23°06' E 113°27'6605056.6
2016-Jul-25 15:25N 31°42' E 121°10'660767.9
2016-Jul-25 14:33N 23°06' E 113°27'970268605.3
2016-Jul-25 14:33N 37°09' E 122°41'3351333.4
2016-Jul-25 14:18N 31°42' E 121°10'660860.4
2016-Jul-25 13:32N 23°06' E 113°26'6602938.6
2016-Jul-25 13:19N 31°42' E 121°10'660876.2
2016-Jul-25 12:33N 23°06' E 113°26'6601436.3
2016-Jul-25 12:06N 31°42' E 121°09'6601221.5
2016-Jul-25 11:33N 23°06' E 113°26'0 0.0
2016-Jul-25 10:28N 23°06' E 113°26'0 0.0
2016-Jul-25 09:33N 23°06' E 113°26'6148342.1
2016-Jul-25 09:29N 29°54' E 121°59'11615530.0
2016-Jul-25 09:29N 31°42' E 121°09'4536292.0
2016-Jul-25 09:24N 24°35' E 118°21'3801068.3
2016-Jul-25 09:03N 29°54' E 122°13'6231269.5
2016-Jul-25 08:33N 23°04' E 113°29'62047493.6
2016-Jul-25 08:33N 29°55' E 122°08'621628.9
2016-Jul-25 07:33N 23°01' E 113°32'66170024.3
2016-Jul-25 07:33N 31°42' E 121°09'11616039.2
2016-Jul-25 07:32N 29°56' E 122°02'617617.9
2016-Jul-25 06:32N 23°01' E 113°32'61741144.6
2016-Jul-25 06:32N 29°51' E 122°07'975439.8
2016-Jul-25 06:31N 31°21' E 121°27'2692975.9
2016-Jul-25 06:31N 31°42' E 121°10'2627.2
2016-Jul-25 05:34N 31°21' E 121°27'0 0.1
2016-Jul-25 04:33N 31°21' E 121°27'7422228.3
2016-Jul-25 04:33N 31°57' E 120°10'522271.2
2016-Jul-25 04:32N 31°42' E 121°10'1169740.8
2016-Jul-25 04:31N 29°54' E 121°59'373369.1
2016-Jul-25 03:30N 24°35' E 118°21'12413171.2
2016-Jul-25 03:30N 23°07' E 116°45'5666819.2
2016-Jul-25 03:25N 31°42' E 121°10'52626.2
2016-Jul-25 03:20N 31°57' E 120°10'615156779.4
2016-Jul-25 03:13N 33°37' W 117°55'66398289.5
2016-Jul-25 02:25N 23°12' E 116°51'184196.2
2016-Jul-25 01:29N 23°01' E 113°32'0 0.0
2016-Jul-25 00:33N 23°01' E 113°32'6612736.6
2016-Jul-25 00:19N 31°42' E 121°10'2 9.0
2016-Jul-25 00:07N 31°41' E 121°11'6611170.6
2016-Jul-24 23:33N 23°01' E 113°32'100714327.0
2016-Jul-24 23:29N 38°31' E 121°01'10071087.9
2016-Jul-24 22:33N 23°01' E 113°32'61417404.2
2016-Jul-24 22:31N 29°54' E 121°59'614634.4
2016-Jul-24 21:33N 23°01' E 113°32'0 0.0
2016-Jul-24 20:32N 23°01' E 113°32'61458166.8
2016-Jul-24 20:31N 29°54' E 121°59'44317709.9
2016-Jul-24 20:29N 23°39' E 117°35'5195260.5
2016-Jul-24 20:23N 31°42' E 121°10'661774.6
2016-Jul-24 19:32N 23°01' E 113°32'6142749.2
2016-Jul-24 19:19N 29°54' E 121°59'105137.9
2016-Jul-24 18:33N 31°34' E 121°20'6607668.9
2016-Jul-24 18:28N 23°01' E 113°32'62934291.0
2016-Jul-24 18:27N 29°56' E 122°19'122732.6
2016-Jul-24 18:17N 31°42' E 121°09'661896.0
2016-Jul-24 17:33N 23°01' E 113°32'6614623.3
2016-Jul-24 17:24N 31°42' E 121°10'21126.8
2016-Jul-24 17:14N 31°28' E 121°27'661948.9
2016-Jul-24 16:32N 23°01' E 113°32'66057990.4
2016-Jul-24 16:32N 31°25' E 121°31'98296.4
2016-Jul-24 16:12N 29°56' E 122°19'629973.8
2016-Jul-24 15:33N 23°01' E 113°32'6296715.7
2016-Jul-24 15:28N 29°56' E 122°19'122799.0
2016-Jul-24 15:18N 31°42' E 121°10'661883.5
2016-Jul-24 14:33N 23°01' E 113°32'2631150.7
2016-Jul-24 14:20N 24°07' E 118°09'4823412.5
2016-Jul-24 14:11N 31°42' E 121°10'661404.5
2016-Jul-24 12:33N 23°01' E 113°32'6612378.4
2016-Jul-24 12:17N 31°42' E 121°10'661909.4
2016-Jul-24 11:33N 23°01' E 113°32'0 0.0
2016-Jul-24 10:33N 23°01' E 113°32'6144815.2
2016-Jul-24 10:25N 29°54' E 121°59'3783550.8
2016-Jul-24 10:18N 24°24' E 118°31'287378.6
2016-Jul-24 09:33N 23°01' E 113°32'66125599.4
2016-Jul-24 09:31N 31°42' E 121°09'29527.7
2016-Jul-24 09:28N 32°01' E 120°42'3361317.2
2016-Jul-24 09:13N 37°35' E 121°26'353524.9
2016-Jul-24 08:33N 31°42' E 121°09'66152906.2
2016-Jul-24 08:32N 23°01' E 113°32'112535206.4
2016-Jul-24 08:30N 40°17' E 122°05'536558.8
2016-Jul-24 07:32N 31°22' E 121°30'65778860.8
2016-Jul-24 07:32N 23°01' E 113°32'629174082.2
2016-Jul-24 07:32N 29°56' E 122°19'1766.7
2016-Jul-24 07:16N 29°54' E 121°59'352490.1
2016-Jul-24 06:33N 24°44' E 118°53'311111950.9
2016-Jul-24 06:33N 23°01' E 113°32'65648185.4
2016-Jul-24 06:32N 31°22' E 121°28'26363.5
2016-Jul-24 06:28N 31°42' E 121°09'661728.7
2016-Jul-24 05:33N 23°01' E 113°32'31754426.5
2016-Jul-24 05:33N 24°48' E 118°58'4307812.4
2016-Jul-24 05:30N 31°42' E 121°10'1221832.0
2016-Jul-24 05:26N 29°56' E 122°19'961614.3
2016-Jul-24 05:22N 31°22' E 121°28'0 0.0
2016-Jul-24 04:33N 31°22' E 121°28'409735413.1
2016-Jul-24 04:33N 24°53' E 119°03'42438135.0
2016-Jul-24 04:33N 31°42' E 121°10'0 0.0
2016-Jul-24 03:29N 31°42' E 121°10'26363.4
2016-Jul-24 03:24N 31°22' E 121°28'54202.9
2016-Jul-24 03:08N 32°01' E 120°45'5487.8
2016-Jul-24 02:32N 31°22' E 121°28'26382.7
2016-Jul-24 02:28N 31°42' E 121°10'0 0.0
2016-Jul-24 01:32N 31°42' E 121°10'26323.0
2016-Jul-24 01:27N 31°22' E 121°28'92395.0
2016-Jul-24 01:13N 29°54' E 121°59'92129.5
2016-Jul-24 00:30N 31°22' E 121°28'26243.2
2016-Jul-24 00:24N 31°42' E 121°10'3991307.0
2016-Jul-24 00:06N 25°14' E 119°25'311534.7
2016-Jul-23 23:31N 29°54' E 121°59'921397.4
2016-Jul-23 23:27N 31°22' E 121°28'249.6
2016-Jul-23 23:25N 31°22' E 121°30'271165.8
2016-Jul-23 23:23N 31°42' E 121°10'368398.6
2016-Jul-23 22:28N 37°51' E 121°07'3893334.3
2016-Jul-23 22:21N 31°22' E 121°30'226.0
2016-Jul-23 22:17N 31°22' E 121°28'7210429.4
2016-Jul-23 22:17N 31°57' E 120°13'501401.8
2016-Jul-23 22:15N 31°42' E 121°10'373545.6
2016-Jul-23 21:34N 37°55' E 121°01'3949511.7
2016-Jul-23 21:31N 31°22' E 121°30'215.5
2016-Jul-23 21:24N 31°22' E 121°28'92478.0
2016-Jul-23 21:13N 29°54' E 121°59'488744.0
2016-Jul-23 20:34N 37°59' E 120°53'48810838.7
2016-Jul-23 20:31N 29°54' E 121°59'1161690.9
2016-Jul-23 20:27N 31°42' E 121°09'26217.8
2016-Jul-23 20:20N 31°22' E 121°28'2633.9
2016-Jul-23 19:33N 31°42' E 121°09'37854492.9
2016-Jul-23 19:33N 38°00' E 120°44'40010835.1
2016-Jul-23 19:31N 31°22' E 121°28'92229.7
2016-Jul-23 19:07N 29°54' E 121°59'493886.1
2016-Jul-23 18:34N 38°02' E 120°36'3796630.7
2016-Jul-23 18:30N 31°43' E 121°07'28205.9
2016-Jul-23 18:22N 31°22' E 121°28'0 0.0
2016-Jul-23 17:33N 31°22' E 121°28'40581010.1
2016-Jul-23 17:33N 38°03' E 120°26'37822693.7
2016-Jul-23 17:32N 31°46' E 121°01'1236800.3
2016-Jul-23 17:31N 29°54' E 121°59'500436.4
2016-Jul-23 16:22N 38°06' E 120°13'4097915.3
2016-Jul-23 16:19N 31°22' E 121°28'106452.5
2016-Jul-23 16:05N 29°38' E 121°57'154212.7
2016-Jul-23 15:22N 32°00' E 120°48'1402978.9
2016-Jul-23 15:19N 29°54' E 121°59'92635.4
2016-Jul-23 15:10N 31°22' E 121°28'92139.6
2016-Jul-23 14:31N 29°54' E 121°59'1431738.6
2016-Jul-23 14:26N 31°60' E 120°38'1461930.2
2016-Jul-23 14:21N 29°55' E 122°07'936859.0
2016-Jul-23 14:21N 31°22' E 121°28'419533.6
2016-Jul-23 13:33N 38°11' E 119°41'41943051.0
2016-Jul-23 13:33N 31°22' E 121°28'887552.7
2016-Jul-23 13:32N 29°59' E 122°02'5245.6
2016-Jul-23 13:31N 29°54' E 121°59'514536.6
2016-Jul-23 12:33N 38°12' E 119°29'4221828.6
2016-Jul-23 12:20N 31°22' E 121°28'70269.0
2016-Jul-23 12:04N 31°57' E 120°16'151135844.4
2016-Jul-23 12:04N 29°54' E 121°59'154266.7
2016-Jul-23 11:29N 31°56' E 120°10'74783.7
2016-Jul-23 11:24N 31°22' E 121°28'0 0.0
2016-Jul-23 10:32N 31°22' E 121°28'832575.3
2016-Jul-23 10:30N 30°01' E 121°50'2324.0
2016-Jul-23 09:31N 29°38' E 121°57'23542.5
2016-Jul-23 09:29N 30°01' E 121°50'834329.5
2016-Jul-23 09:28N 31°22' E 121°28'921986.8
2016-Jul-23 09:25N 29°54' E 121°59'1012.0
2016-Jul-23 08:33N 30°01' E 121°50'6155663.3
2016-Jul-23 08:27N 22°57' E 113°33'65911564.2
2016-Jul-23 08:24N 31°22' E 121°28'655780.0
2016-Jul-23 07:33N 23°04' E 113°29'65524813.6
2016-Jul-23 07:32N 31°22' E 121°28'83733.6
2016-Jul-23 07:25N 30°01' E 121°50'84423.3
2016-Jul-23 07:13N 31°24' E 121°35'4 6.3
2016-Jul-23 06:33N 31°22' E 121°39'66161044.6
2016-Jul-23 06:33N 23°06' E 113°27'6554910.4
2016-Jul-23 06:25N 31°22' E 121°28'655353.9
2016-Jul-23 04:34N 23°06' E 113°27'65515609.0
2016-Jul-23 04:31N 31°22' E 121°28'87657.3
2016-Jul-23 04:23N 29°57' E 121°52'86437.4
2016-Jul-23 04:11N 31°21' E 121°31'6561039.3
2016-Jul-23 03:33N 23°06' E 113°27'61484965.6
2016-Jul-23 03:33N 29°54' E 121°59'9236725.9
2016-Jul-23 03:33N 31°22' E 121°30'922391.1
2016-Jul-23 03:31N 29°54' E 121°59'9216492.5
2016-Jul-23 03:30N 31°22' E 121°28'0 0.0
2016-Jul-23 02:33N 31°22' E 121°28'2677.4
2016-Jul-23 02:33N 31°22' E 121°30'656590731.2
2016-Jul-23 02:33N 23°06' E 113°27'0 0.0
2016-Jul-23 01:33N 23°06' E 113°27'65573690.9
2016-Jul-23 01:33N 31°22' E 121°28'217.6
2016-Jul-23 01:28N 31°22' E 121°30'656712.2
2016-Jul-23 00:32N 23°06' E 113°27'65317409.7
2016-Jul-23 00:30N 31°21' E 121°26'610934907.9
2016-Jul-23 00:20N 33°37' W 117°55'613241184.1
2016-Jul-23 00:11N 29°54' E 121°59'0 3.3
2016-Jul-23 00:07N 29°54' E 121°59'6141043.7
2016-Jul-22 23:31N 23°06' E 113°27'6822558137.8
2016-Jul-22 23:31N 33°37' W 117°55'61095564.8
2016-Jul-22 22:25N 31°21' E 121°26'9136509.3
2016-Jul-22 22:25N 29°54' E 121°59'615715.4
2016-Jul-22 21:33N 23°06' E 113°26'654261438.8
2016-Jul-22 21:33N 31°21' E 121°26'654634.2
2016-Jul-22 20:31N 23°06' E 113°26'682375809.6
2016-Jul-22 20:26N 33°37' W 117°55'610930459.8
2016-Jul-22 20:14N 31°21' E 121°26'654958.8
2016-Jul-22 19:33N 23°06' E 113°26'6542074.9
2016-Jul-22 19:14N 31°21' E 121°26'610959437.7
2016-Jul-22 19:08N 33°37' W 117°55'682311929.2
2016-Jul-22 18:33N 23°06' E 113°26'65434100.7
2016-Jul-22 18:32N 31°21' E 121°26'54032313.3
2016-Jul-22 16:12N 49°17' W 122°51'5887883089.9
2016-Jul-22 16:12N 24°35' E 118°21'437668.9
2016-Jul-22 15:32N 31°21' E 121°26'654130719.4
2016-Jul-22 15:32N 23°06' E 113°26'657590882.9
2016-Jul-22 15:32N 31°18' E 121°33'4383109.8
2016-Jul-22 15:24N 24°35' E 118°21'440526.6
2016-Jul-22 14:33N 31°22' E 121°30'65723412.1
2016-Jul-22 14:32N 23°06' E 113°26'65481136.2
2016-Jul-22 14:31N 31°21' E 121°26'91221.6
2016-Jul-22 14:07N 29°54' E 121°59'94169.3
2016-Jul-22 13:33N 31°25' E 121°30'659593525.6
2016-Jul-22 13:33N 23°06' E 113°26'1 0.5
2016-Jul-22 12:33N 23°06' E 113°26'65912620.3
2016-Jul-22 12:30N 31°29' E 121°24'971.8
2016-Jul-22 12:23N 31°21' E 121°26'653786.9
2016-Jul-22 11:33N 23°06' E 113°27'659296428.0
2016-Jul-22 11:33N 31°33' E 121°19'1051127.3
2016-Jul-22 11:28N 29°54' E 121°59'91466.1
2016-Jul-22 11:16N 31°21' E 121°26'2129.1
2016-Jul-22 10:33N 31°39' E 121°14'66033928.3
2016-Jul-22 10:32N 23°06' E 113°27'6142692.4
2016-Jul-22 10:19N 29°54' E 121°59'614809.7
2016-Jul-22 09:33N 23°06' E 113°27'65910837.5
2016-Jul-22 09:29N 31°43' E 121°07'4716916.4
2016-Jul-22 09:29N 31°56' E 120°14'71538.3
2016-Jul-22 09:21N 31°21' E 121°26'653805.6
2016-Jul-22 08:33N 23°06' E 113°26'65335628.0
2016-Jul-22 08:32N 31°21' E 121°26'301588.7
2016-Jul-22 08:31N 31°44' E 121°04'659683.0
2016-Jul-22 07:33N 23°06' E 113°26'65915501.7
2016-Jul-22 07:30N 31°44' E 121°04'30130.1
2016-Jul-22 07:16N 31°21' E 121°26'653239.5
2016-Jul-22 04:33N 23°06' E 113°27'66019638.5
2016-Jul-22 04:31N 31°22' E 121°36'9231.5
2016-Jul-22 04:29N 31°21' E 121°26'30615.1
2016-Jul-22 04:26N 31°44' E 121°04'2831.9
2016-Jul-22 03:33N 31°26' E 121°30'282902.7
2016-Jul-22 03:32N 31°44' E 121°04'65994834.6
2016-Jul-22 03:32N 23°06' E 113°27'65612497.2
2016-Jul-22 03:28N 31°21' E 121°30'418.1
2016-Jul-22 03:15N 31°21' E 121°26'1216.9
2016-Jul-22 02:33N 31°32' E 121°20'658112792.1
2016-Jul-22 02:33N 23°06' E 113°27'65913784.1
2016-Jul-22 02:30N 31°44' E 121°04'30497.2
2016-Jul-22 02:26N 31°21' E 121°26'652.9
2016-Jul-22 02:20N 31°26' E 121°29'1012.3
2016-Jul-22 01:33N 31°32' E 121°20'65838192.5
2016-Jul-22 01:32N 23°05' E 113°27'658672.9
2016-Jul-22 00:34N 31°32' E 121°20'12234.7
2016-Jul-22 00:30N 31°21' E 121°26'65613492.3
2016-Jul-22 00:28N 22°58' E 113°32'6161766.1
2016-Jul-22 00:07N 29°54' E 121°59'103186.7
2016-Jul-21 23:33N 31°32' E 121°20'1232.4
2016-Jul-21 23:11N 31°21' E 121°26'1219.1
2016-Jul-21 22:33N 31°32' E 121°20'12145.2
2016-Jul-21 22:28N 31°21' E 121°26'1048280.6
2016-Jul-21 22:28N 29°42' E 122°02'116127.7
2016-Jul-21 21:33N 31°32' E 121°20'10923146.2
2016-Jul-21 21:33N 29°50' E 122°06'972134.4
2016-Jul-21 21:30N 31°21' E 121°26'5401388871.8
2016-Jul-21 21:29N 49°18' W 122°53'1313.4
2016-Jul-21 20:33N 49°20' W 123°12'538119370602.1
2016-Jul-21 20:33N 31°32' E 121°20'10314298.6
2016-Jul-21 20:33N 29°55' E 122°02'612834472.5
2016-Jul-21 20:22N 33°37' W 117°55'613299431.5
2016-Jul-21 20:19N 29°54' E 121°59'913286.6
2016-Jul-21 20:17N 31°21' E 121°26'53867440.7
2016-Jul-21 19:33N 49°20' W 123°12'53811210752.3
2016-Jul-21 19:33N 31°32' E 121°20'610774781.6
2016-Jul-21 19:28N 33°37' W 117°55'610923622.0
2016-Jul-21 19:13N 31°21' E 121°26'1218.5
2016-Jul-21 18:33N 31°32' E 121°20'122569.0
2016-Jul-21 18:33N 31°21' E 121°26'4091275.5
2016-Jul-21 18:14N 38°06' E 120°20'5 7.9
2016-Jul-21 17:33N 38°04' E 120°27'39865203.5
2016-Jul-21 17:33N 31°29' E 121°27'8246.4
2016-Jul-21 17:31N 31°21' E 121°26'66213.5
2016-Jul-21 17:12N 32°00' E 120°24'70108.1
2016-Jul-21 16:34N 31°24' E 121°34'402289222.7
2016-Jul-21 16:33N 38°03' E 120°37'8 7.9
2016-Jul-21 15:33N 38°01' E 120°46'40272303.5
2016-Jul-21 15:33N 31°21' E 121°26'539461059.1
2016-Jul-21 15:28N 49°18' W 123°03'9692933.5
2016-Jul-21 15:08N 33°37' W 117°55'59029845.6
2016-Jul-21 14:32N 37°59' E 120°56'399392.5
2016-Jul-21 13:31N 31°21' E 121°26'0 0.0
2016-Jul-21 12:33N 31°21' E 121°26'9173.8
2016-Jul-21 11:19N 29°54' E 121°59'1035102.7
2016-Jul-21 11:17N 31°32' E 121°21'1214.7
2016-Jul-21 10:28N 31°21' E 121°26'92101.7
2016-Jul-21 09:33N 29°55' E 122°06'928713.0
2016-Jul-21 09:33N 31°21' E 121°26'91209.8
2016-Jul-21 09:07N 29°54' E 121°59'91144.0
2016-Jul-21 08:28N 31°21' E 121°26'91250.1
2016-Jul-21 08:07N 29°54' E 121°59'9157.1
2016-Jul-21 06:31N 31°21' E 121°26'91164320.8
2016-Jul-21 06:31N 29°54' E 121°59'613214077.7
2016-Jul-21 06:04N 33°37' W 117°55'589210266.6
2016-Jul-21 05:30N 37°36' E 121°25'3755036.4
2016-Jul-21 05:26N 31°21' E 121°26'1517.8
2016-Jul-21 04:33N 31°36' E 121°26'35912324.2
2016-Jul-21 04:32N 37°36' E 121°25'9735552.2
2016-Jul-21 04:21N 22°51' E 113°34'6196750.9
2016-Jul-21 04:16N 29°54' E 121°59'91781.4
2016-Jul-21 04:09N 31°21' E 121°26'67106.4
2016-Jul-21 03:31N 31°59' E 120°20'45623137.2
2016-Jul-21 03:29N 24°35' E 118°20'2818027.0
2016-Jul-21 03:27N 22°58' E 113°32'6575229.4
2016-Jul-21 03:20N 31°21' E 121°26'438561.0
2016-Jul-21 02:33N 24°35' E 118°20'28128095.5
2016-Jul-21 02:32N 23°04' E 113°30'4 3.6
2016-Jul-21 01:33N 23°06' E 113°27'65526776.7
2016-Jul-21 01:31N 31°21' E 121°27'43922261.6
2016-Jul-21 01:30N 24°35' E 118°20'283297.7
2016-Jul-21 00:33N 23°06' E 113°27'6557185.0
2016-Jul-21 00:28N 31°21' E 121°27'655716.3
2016-Jul-20 23:33N 23°06' E 113°27'6822792221.4
2016-Jul-20 23:32N 33°37' W 117°55'61072748085.9
2016-Jul-20 23:32N 31°21' E 121°27'882969.3
2016-Jul-20 23:31N 29°56' E 121°55'612634.7
2016-Jul-20 22:33N 23°06' E 113°27'6551671.4
2016-Jul-20 22:09N 31°21' E 121°27'6551075.1
2016-Jul-20 21:33N 23°06' E 113°27'6557829.6
2016-Jul-20 21:28N 31°21' E 121°27'610772797.1
2016-Jul-20 21:23N 33°37' W 117°55'9675067.5
2016-Jul-20 21:11N 49°18' W 122°54'61919809.4
2016-Jul-20 20:33N 23°06' E 113°27'6182618193.7
2016-Jul-20 20:33N 49°17' W 123°05'539055599.5
2016-Jul-20 20:27N 31°21' E 121°27'53886026.2
2016-Jul-20 19:33N 49°18' W 123°07'6181292798.0
2016-Jul-20 19:32N 23°05' E 113°26'65513799.4
2016-Jul-20 19:29N 31°21' E 121°27'655706.5
2016-Jul-20 18:33N 23°05' E 113°26'61842023988.1
2016-Jul-20 18:33N 49°18' W 123°03'53912772727.1
2016-Jul-20 18:33N 31°21' E 121°27'53925407.2
2016-Jul-20 17:33N 49°18' W 123°02'6185695833.5
2016-Jul-20 17:33N 23°05' E 113°26'65594387.9
2016-Jul-20 17:32N 31°21' E 121°27'922594.2
2016-Jul-20 17:30N 29°54' E 121°59'615645.4
2016-Jul-20 16:33N 23°05' E 113°26'6185494832.1
2016-Jul-20 16:32N 49°18' W 123°02'5392396176.1
2016-Jul-20 16:31N 31°21' E 121°27'92412.9
2016-Jul-20 16:18N 29°54' E 121°59'54497219.8
2016-Jul-20 15:33N 49°18' W 122°53'6192825660.2
2016-Jul-20 15:32N 23°05' E 113°26'6556742.0
2016-Jul-20 15:27N 31°21' E 121°27'655735.3
2016-Jul-20 14:33N 23°05' E 113°26'65511978.2
2016-Jul-20 14:30N 31°21' E 121°27'0 0.0
2016-Jul-20 13:33N 31°21' E 121°27'2580.7
2016-Jul-20 13:33N 31°22' E 121°30'657124540.9
2016-Jul-20 13:32N 23°05' E 113°26'0 0.0
2016-Jul-20 12:33N 23°05' E 113°26'65525103.3
2016-Jul-20 12:32N 31°21' E 121°27'655665.5
2016-Jul-20 11:33N 23°05' E 113°26'0 0.0
2016-Jul-20 10:33N 23°05' E 113°26'6555290.8
2016-Jul-20 10:25N 31°21' E 121°27'92105.7
2016-Jul-20 09:33N 29°54' E 121°59'61558237.1
2016-Jul-20 09:33N 23°05' E 113°26'6557443.9
2016-Jul-20 09:27N 31°21' E 121°27'55151.8
2016-Jul-20 09:06N 32°02' E 120°44'55102.0
2016-Jul-20 08:33N 31°21' E 121°27'655214525.1
2016-Jul-20 08:33N 23°05' E 113°26'682338498.4
2016-Jul-20 08:23N 33°37' W 117°55'6108999533.5
2016-Jul-20 08:22N 31°40' E 121°13'2327.4
2016-Jul-20 07:32N 31°21' E 121°27'655112370.3
2016-Jul-20 07:32N 23°05' E 113°26'6201266.1
2016-Jul-20 07:03N 29°55' E 122°07'6201279.9
2016-Jul-20 06:34N 23°05' E 113°26'623748198.9
2016-Jul-20 06:34N 29°59' E 122°08'90229.1
2016-Jul-20 06:10N 31°21' E 121°27'6551068.7
2016-Jul-20 05:33N 23°05' E 113°26'4 4.2
2016-Jul-20 04:33N 23°03' E 113°30'62319508.1
2016-Jul-20 04:31N 29°59' E 122°08'894280.7
2016-Jul-20 04:30N 31°21' E 121°27'43943869.6
2016-Jul-20 04:29N 24°35' E 118°21'7979495.0
2016-Jul-20 04:24N 37°36' E 121°25'589226186.1
2016-Jul-20 04:11N 33°37' W 117°55'61229887.2
2016-Jul-20 03:34N 29°59' E 122°07'85152565.6
2016-Jul-20 03:33N 31°21' E 121°41'662170287.4
2016-Jul-20 03:33N 23°02' E 113°31'6554182.0
2016-Jul-20 03:24N 31°21' E 121°27'6107314066.2
2016-Jul-20 03:23N 33°37' W 117°55'613230074.5
2016-Jul-20 03:10N 29°54' E 121°59'0 0.1
2016-Jul-20 02:33N 29°54' E 121°59'61378874.6
2016-Jul-20 02:33N 23°02' E 113°31'6554417.4
2016-Jul-20 02:24N 31°21' E 121°27'43952643.5
2016-Jul-20 02:23N 24°35' E 118°21'206494.8
2016-Jul-20 02:23N 24°26' E 118°02'65321119796.3
2016-Jul-20 02:23N 33°37' W 117°55'68408347.5
2016-Jul-20 01:34N 22°08' E 113°47'551031.0
2016-Jul-20 01:30N 23°01' E 113°32'6554599.6
2016-Jul-20 01:22N 31°21' E 121°27'610733159.3
2016-Jul-20 01:11N 33°37' W 117°55'682010745.6
2016-Jul-20 00:33N 23°01' E 113°32'96529957.8
2016-Jul-20 00:31N 37°36' E 121°25'79732219.4
2016-Jul-20 00:29N 24°35' E 118°21'43921342.2
2016-Jul-20 00:28N 31°21' E 121°27'610721241.2
2016-Jul-20 00:11N 33°37' W 117°55'682110624.8
2016-Jul-19 23:32N 23°01' E 113°32'655138806.0
2016-Jul-19 23:32N 31°21' E 121°27'656647.8
2016-Jul-19 22:31N 23°01' E 113°32'656262244.7
2016-Jul-19 22:31N 31°21' E 121°28'656679.5
2016-Jul-19 21:33N 23°01' E 113°32'682192658.0
2016-Jul-19 21:29N 33°37' W 117°55'610755656.6
2016-Jul-19 21:22N 31°22' E 121°28'0 0.0
2016-Jul-19 20:23N 31°21' E 121°28'6556209.4
2016-Jul-19 20:17N 23°01' E 113°32'0 0.0
2016-Jul-19 18:33N 23°01' E 113°32'65578651.8
2016-Jul-19 18:33N 31°21' E 121°28'655642.9
2016-Jul-19 17:31N 23°01' E 113°32'65581363.4
2016-Jul-19 17:31N 31°21' E 121°28'55472.9
2016-Jul-19 17:24N 32°02' E 120°44'663788.0
2016-Jul-19 16:33N 23°01' E 113°32'65763926.5
2016-Jul-19 16:33N 31°22' E 121°29'373301.3
2016-Jul-19 15:18N 37°36' E 121°25'0 0.0
2016-Jul-19 14:33N 37°36' E 121°25'965973.6
2016-Jul-19 13:33N 23°01' E 113°32'659131876.7
2016-Jul-19 13:33N 31°24' E 121°31'532525.7
2016-Jul-19 12:32N 40°16' E 122°06'112353206.4
2016-Jul-19 12:31N 23°01' E 113°32'0 0.0
2016-Jul-19 11:33N 23°01' E 113°32'65910457.7
2016-Jul-19 11:29N 31°24' E 121°31'659708.4
2016-Jul-19 10:33N 23°01' E 113°32'661148622.1
2016-Jul-19 10:33N 31°27' E 121°29'332.9
2016-Jul-19 10:28N 31°28' E 121°26'36714697.9
2016-Jul-19 10:27N 37°36' E 121°25'364406.7
2016-Jul-19 09:33N 31°31' E 121°21'99536.7
2016-Jul-19 09:22N 29°57' E 121°52'3731333.4
2016-Jul-19 09:05N 24°35' E 118°21'373700.7
2016-Jul-19 08:33N 29°54' E 121°59'1093951.0
2016-Jul-19 08:31N 31°36' E 121°16'109112.4
2016-Jul-19 07:33N 29°54' E 121°59'1141828.0
2016-Jul-19 07:30N 31°41' E 121°11'45140625.4
2016-Jul-19 07:29N 24°35' E 118°21'6510121425.2
2016-Jul-19 07:26N 33°37' W 117°55'0 0.0
2016-Jul-19 06:32N 33°37' W 117°55'68203451.9
2016-Jul-19 04:33N 23°01' E 113°32'61431110.5
2016-Jul-19 04:32N 29°54' E 121°59'6132113203.8
2016-Jul-19 04:29N 33°37' W 117°55'609525397.5
2016-Jul-19 04:14N 31°17' E 121°44'841076.6
2016-Jul-19 04:10N 29°54' E 121°59'614986.0
2016-Jul-19 03:32N 23°01' E 113°32'614276107.7
2016-Jul-19 03:32N 29°54' E 121°59'881671.2
2016-Jul-19 03:29N 31°20' E 121°40'4422190.9
2016-Jul-19 03:17N 24°35' E 118°21'281382.8
2016-Jul-19 02:33N 23°01' E 113°32'66176710.6
2016-Jul-19 02:32N 31°23' E 121°35'92506.0
2016-Jul-19 02:22N 29°54' E 121°59'614754.1
2016-Jul-19 01:33N 23°01' E 113°32'6124489.8
2016-Jul-19 01:25N 29°54' E 121°57'612708.6
2016-Jul-19 00:33N 23°01' E 113°32'6122797.3
2016-Jul-19 00:20N 29°54' E 121°57'612778.3
2016-Jul-18 23:32N 23°01' E 113°32'61233397.9
2016-Jul-18 23:31N 29°54' E 121°57'612625.1
2016-Jul-18 22:33N 23°01' E 113°32'61421452.7
2016-Jul-18 22:31N 29°54' E 121°59'2488.2
2016-Jul-18 22:31N 29°54' E 121°57'612628.9
2016-Jul-18 21:32N 23°01' E 113°32'61229003.6
2016-Jul-18 21:31N 29°54' E 121°57'2837.0
2016-Jul-18 21:31N 29°54' E 121°59'2 1.7
2016-Jul-18 20:33N 29°54' E 121°57'612275532.6
2016-Jul-18 20:33N 23°01' E 113°32'0 0.0
2016-Jul-18 19:33N 23°01' E 113°32'612220426.0
2016-Jul-18 19:33N 29°54' E 121°57'2 5.6
2016-Jul-18 19:16N 29°54' E 121°59'2 2.2
2016-Jul-18 18:32N 29°54' E 121°57'61243221.1
2016-Jul-18 18:31N 23°01' E 113°32'661679.5
2016-Jul-18 17:33N 31°23' E 121°35'661476057.7
2016-Jul-18 17:33N 23°01' E 113°32'61253762.8
2016-Jul-18 17:32N 29°54' E 121°57'8989.7
2016-Jul-18 16:33N 31°21' E 121°40'89106282.2
2016-Jul-18 16:33N 29°54' E 121°57'61212111.4
2016-Jul-18 16:30N 23°01' E 113°32'0 0.0
2016-Jul-18 15:33N 23°01' E 113°32'612314892.4
2016-Jul-18 15:33N 29°54' E 121°57'2 3.8
2016-Jul-18 15:07N 29°54' E 121°59'2 2.9
2016-Jul-18 14:33N 29°54' E 121°57'61218679.4
2016-Jul-18 14:31N 23°01' E 113°32'65911139.6
2016-Jul-18 14:28N 31°24' E 121°31'93476.0
2016-Jul-18 14:16N 29°54' E 121°59'614745.0
2016-Jul-18 13:26N 23°01' E 113°32'6121102085.0
2016-Jul-18 13:26N 29°54' E 121°57'0 0.0
2016-Jul-18 12:33N 29°54' E 121°57'6125925.1
2016-Jul-18 12:27N 23°01' E 113°32'612683.0
2016-Jul-18 11:33N 29°54' E 121°57'6129419.5
2016-Jul-18 11:29N 23°01' E 113°32'0 0.0
2016-Jul-18 10:33N 23°01' E 113°32'61211361.7
2016-Jul-18 10:29N 29°54' E 121°57'612654.8
2016-Jul-18 09:33N 23°01' E 113°32'61218522.4
2016-Jul-18 09:31N 29°54' E 121°57'892.0
2016-Jul-18 09:26N 29°55' E 122°07'8 9.7
2016-Jul-18 08:33N 29°54' E 121°57'6126463.8
2016-Jul-18 08:28N 23°01' E 113°32'2 2.2
2016-Jul-18 07:33N 23°03' E 113°31'61250049.5
2016-Jul-18 07:33N 29°54' E 121°57'0 0.0
2016-Jul-18 06:29N 29°54' E 121°57'6124645.9
2016-Jul-18 06:21N 23°03' E 113°31'6626809.3
2016-Jul-18 06:16N 32°02' E 120°44'27186.9
2016-Jul-18 06:07N 31°57' E 120°13'152269.5
2016-Jul-18 05:33N 29°54' E 121°57'6128635.9
2016-Jul-18 05:29N 23°03' E 113°31'64417698.0
2016-Jul-18 05:27N 31°57' E 120°16'4547528.2
2016-Jul-18 05:23N 24°35' E 118°21'372447.1
2016-Jul-18 04:33N 29°54' E 121°57'0 0.0
2016-Jul-18 03:32N 29°54' E 121°57'6129214.1
2016-Jul-18 03:28N 23°03' E 113°31'282944.6
2016-Jul-18 03:10N 24°35' E 118°22'282438.6
2016-Jul-18 02:32N 23°03' E 113°31'612115903.4
2016-Jul-18 02:32N 29°54' E 121°57'3696964.3
2016-Jul-18 02:28N 24°35' E 118°27'3783930.6
2016-Jul-18 02:23N 29°56' E 122°11'622755.6
2016-Jul-18 01:33N 23°03' E 113°31'6138268.0
2016-Jul-18 01:29N 29°54' E 121°59'373980.1
2016-Jul-18 01:06N 24°33' E 118°26'372670.3
2016-Jul-18 00:33N 29°54' E 121°57'61226532.3
2016-Jul-18 00:31N 23°03' E 113°31'6131390.2
2016-Jul-18 00:05N 29°54' E 121°59'91171.1
2016-Jul-17 23:33N 31°23' E 121°37'662119085.8
2016-Jul-17 23:33N 23°03' E 113°31'61233879.7
2016-Jul-17 23:31N 29°54' E 121°57'3728989.5
2016-Jul-17 23:29N 24°33' E 118°25'284306.0
2016-Jul-17 22:33N 23°03' E 113°31'  
Track history (hours):
 
Tides and Currents Weather Stations Pressure Air Temp Water Temp Dewpoint Dewpoint Depression Visibility Wind Speed Wind Dir Waves Ship Positions

Graceful Lady

Last reported at 2016-Jul-27 22:33 UTC. Time now 2016-Jul-27 22:57 UTC.
Position N 37°59' E 120°56'.

Length 6 m.

Type: Pollution control. MMSI: 316014038.

Date/timePositionNaut miles runAvg speedWind from/ knotsBaromVisibWave heightAir tempDewpointWater temp
2016-Jul-27 22:33N 37°59' E 120°56'6760478.9
2016-Jul-27 22:33N 38°58' E 121°38'543195570.2
2016-Jul-27 22:33N 29°56' E 122°18'62820365.2
2016-Jul-27 22:31N 23°02' E 113°31'282847.7
2016-Jul-27 22:11N 24°35' E 118°21'8791386.3
2016-Jul-27 21:33N 38°58' E 121°38'104376660.6
2016-Jul-27 21:32N 23°02' E 113°31'2825364.3
2016-Jul-27 21:29N 24°35' E 118°21'8096054.1
2016-Jul-27 21:21N 37°52' E 121°03'48013710.6
2016-Jul-27 21:19N 29°54' E 121°59'5448136208.8
2016-Jul-27 21:17N 49°18' W 122°54'539427236.7
2016-Jul-27 21:05N 31°42' E 121°10'364697.6
2016-Jul-27 20:33N 37°46' E 121°08'50841016842.1
2016-Jul-27 20:33N 49°18' W 123°05'53861292617.6
2016-Jul-27 20:33N 31°42' E 121°10'436261637.7
2016-Jul-27 20:33N 38°58' E 121°38'5834466737.6
2016-Jul-27 20:32N 33°37' W 117°55'6821522445.4
2016-Jul-27 20:31N 23°02' E 113°31'2827920.7
2016-Jul-27 20:29N 24°35' E 118°21'4434237.4
2016-Jul-27 20:23N 31°23' E 121°34'4135.0
2016-Jul-27 20:21N 31°19' E 121°33'53856752.7
2016-Jul-27 19:33N 49°18' W 123°07'50012000540.4
2016-Jul-27 19:33N 38°58' E 121°38'1043197703.7
2016-Jul-27 19:33N 23°02' E 113°31'66344175.3
2016-Jul-27 19:32N 31°24' E 121°37'6298.3
2016-Jul-27 19:31N 31°22' E 121°30'27273.6
2016-Jul-27 19:25N 31°42' E 121°10'1192049.0
2016-Jul-27 19:21N 29°54' E 122°08'101937.9
2016-Jul-27 19:21N 29°56' E 122°19'4713464.4
2016-Jul-27 19:13N 37°43' E 121°07'79120.0
2016-Jul-27 18:33N 38°58' E 121°38'50021800558.4
2016-Jul-27 18:33N 49°18' W 123°07'5379430330.6
2016-Jul-27 18:33N 31°24' E 121°37'1220914.3
2016-Jul-27 18:32N 31°14' E 121°30'651260454.0
2016-Jul-27 18:32N 23°02' E 113°31'62926626.2
2016-Jul-27 18:31N 29°56' E 122°19'47115686.2
2016-Jul-27 18:29N 37°43' E 121°07'37733139.1
2016-Jul-27 18:28N 31°26' E 121°29'23723.8
2016-Jul-27 18:27N 31°42' E 121°10'4532878.8
2016-Jul-27 18:17N 24°35' E 118°21'445612.3
2016-Jul-27 17:33N 31°30' E 121°23'53832153327.7
2016-Jul-27 17:33N 49°19' W 123°08'61791112270.0
2016-Jul-27 17:33N 23°02' E 113°31'1043129532.1
2016-Jul-27 17:32N 38°58' E 121°38'45496181.2
2016-Jul-27 17:32N 31°24' E 121°37'9205.2
2016-Jul-27 17:29N 31°15' E 121°32'332398.1
2016-Jul-27 17:29N 31°42' E 121°10'611038251.9
2016-Jul-27 17:19N 33°37' W 117°55'6113323652.2
2016-Jul-27 17:18N 29°56' E 122°19'3853385.3
2016-Jul-27 17:11N 24°35' E 118°21'444709.4
2016-Jul-27 16:34N 31°24' E 121°37'454327020.2
2016-Jul-27 16:33N 38°58' E 121°38'50002000126.5
2016-Jul-27 16:33N 49°19' W 123°08'5383403717.3
2016-Jul-27 16:33N 31°42' E 121°10'66134008.2
2016-Jul-27 16:31N 23°01' E 113°32'966248320.8
2016-Jul-27 16:31N 37°43' E 121°07'59025311896.7
2016-Jul-27 16:31N 33°37' W 117°55'61041997577.7
2016-Jul-27 16:31N 31°18' E 121°34'43814720.7
2016-Jul-27 16:29N 24°35' E 118°21'440473.7
2016-Jul-27 15:33N 31°21' E 121°32'51593.9
2016-Jul-27 15:33N 31°24' E 121°37'663198821.4
2016-Jul-27 15:33N 23°01' E 113°32'1044751586.8
2016-Jul-27 15:33N 38°58' E 121°38'50126014996.6
2016-Jul-27 15:33N 49°18' W 122°52'53951213979.3
2016-Jul-27 15:33N 31°42' E 121°10'45410554.2
2016-Jul-27 15:30N 24°37' E 118°09'12715.6
2016-Jul-27 15:29N 24°35' E 118°21'651039058.7
2016-Jul-27 15:19N 33°37' W 117°55'58347645.8
2016-Jul-27 14:33N 38°58' E 121°38'455818381.2
2016-Jul-27 14:33N 31°23' E 121°30'67208.3
2016-Jul-27 14:33N 31°24' E 121°37'66379528.6
2016-Jul-27 14:33N 23°01' E 113°32'6614320.5
2016-Jul-27 14:24N 31°42' E 121°10'31810305.3
2016-Jul-27 14:22N 36°54' E 122°27'5865134491.9
2016-Jul-27 14:19N 33°37' W 117°55'61038012.2
2016-Jul-27 13:33N 31°26' E 121°29'76334.6
2016-Jul-27 13:33N 31°24' E 121°37'45438931.0
2016-Jul-27 13:33N 38°58' E 121°38'104438347.4
2016-Jul-27 13:31N 23°01' E 113°32'663689.0
2016-Jul-27 12:33N 31°24' E 121°37'663298220.4
2016-Jul-27 12:33N 23°01' E 113°32'660593625.4
2016-Jul-27 12:33N 31°29' E 121°24'44256.0
2016-Jul-27 12:23N 32°01' E 120°48'4149.3
2016-Jul-27 11:33N 31°31' E 121°21'167099.5
2016-Jul-27 11:33N 31°24' E 121°37'66335610.3
2016-Jul-27 11:32N 23°01' E 113°32'10445772.6
2016-Jul-27 11:21N 38°58' E 121°38'5834166692.1
2016-Jul-27 11:19N 33°37' W 117°55'6125185286.0
2016-Jul-27 11:17N 29°55' E 122°06'619849.2
2016-Jul-27 10:33N 23°01' E 113°32'66382267.8
2016-Jul-27 10:33N 31°24' E 121°37'186594.3
2016-Jul-27 10:33N 31°33' E 121°19'6107226648.4
2016-Jul-27 10:31N 33°37' W 117°55'611859047.9
2016-Jul-27 10:25N 32°00' E 120°47'4201744.0
2016-Jul-27 10:10N 38°58' E 121°38'10441663.5
2016-Jul-27 09:33N 23°01' E 113°32'6602376405.2
2016-Jul-27 09:33N 31°35' E 121°17'6107215552.2
2016-Jul-27 09:31N 33°37' W 117°55'6096124700.4
2016-Jul-27 09:28N 31°21' E 121°40'882340.8
2016-Jul-27 09:26N 29°54' E 121°59'109125.1
2016-Jul-27 08:33N 31°37' E 121°16'6108159330.3
2016-Jul-27 08:31N 33°37' W 117°55'6821191827.3
2016-Jul-27 08:29N 23°01' E 113°32'661216405.0
2016-Jul-27 08:29N 31°42' E 121°09'4 3.9
2016-Jul-27 07:33N 31°40' E 121°12'6109192914.3
2016-Jul-27 07:31N 33°37' W 117°55'589132878.0
2016-Jul-27 07:20N 37°36' E 121°26'96617653.2
2016-Jul-27 07:17N 23°01' E 113°32'6615447.5
2016-Jul-27 07:10N 31°42' E 121°10'0 0.0
2016-Jul-27 06:33N 31°42' E 121°10'35336358.1
2016-Jul-27 06:33N 37°36' E 121°25'965579262.7
2016-Jul-27 06:33N 23°01' E 113°32'661216167.2
2016-Jul-27 06:33N 31°43' E 121°07'611249220.5
2016-Jul-27 06:25N 33°37' W 117°55'651027668.5
2016-Jul-27 06:11N 24°35' E 118°21'281429.7
2016-Jul-27 05:32N 23°01' E 113°32'2816096.8
2016-Jul-27 05:29N 24°35' E 118°21'651057159.0
2016-Jul-27 05:22N 33°37' W 117°55'611084595.5
2016-Jul-27 05:18N 31°42' E 121°10'1102686.4
2016-Jul-27 05:15N 29°58' E 121°51'6 9.0
2016-Jul-27 04:33N 29°58' E 121°59'1132598.1
2016-Jul-27 04:31N 31°42' E 121°10'45316798.3
2016-Jul-27 04:29N 24°35' E 118°21'442476.5
2016-Jul-27 03:33N 31°21' E 121°39'9017987.6
2016-Jul-27 03:33N 29°55' E 122°08'3785647.5
2016-Jul-27 03:29N 24°35' E 118°21'4534156.8
2016-Jul-27 03:22N 31°42' E 121°10'113629.8
2016-Jul-27 03:12N 29°59' E 122°02'113160.3
2016-Jul-27 02:29N 31°42' E 121°10'3128.1
2016-Jul-27 01:24N 31°60' E 120°40'315813.6
2016-Jul-27 01:24N 31°42' E 121°10'116716.1
2016-Jul-27 01:14N 29°54' E 121°59'61323480.0
2016-Jul-26 23:28N 33°37' W 117°55'613218152.8
2016-Jul-26 23:08N 29°54' E 121°59'0 0.0
2016-Jul-26 22:32N 29°54' E 121°59'4201511.6
2016-Jul-26 22:15N 36°54' E 122°27'586541321.2
2016-Jul-26 22:07N 33°37' W 117°55'613210576.8
2016-Jul-26 21:32N 29°54' E 121°59'512.5
2016-Jul-26 21:07N 29°50' E 122°03'4 7.8
2016-Jul-26 20:33N 29°46' E 122°00'19105.2
2016-Jul-26 20:23N 29°56' E 122°19'1222882.7
2016-Jul-26 20:20N 31°42' E 121°10'116577.2
2016-Jul-26 20:08N 29°54' E 121°59'0 0.0
2016-Jul-26 19:32N 29°54' E 121°59'17348.2
2016-Jul-26 19:29N 29°56' E 122°19'122792.0
2016-Jul-26 19:20N 31°42' E 121°10'116129.9
2016-Jul-26 18:26N 29°54' E 121°59'0 0.0
2016-Jul-26 17:32N 29°54' E 121°59'17771.5
2016-Jul-26 17:31N 29°56' E 122°19'1222008.6
2016-Jul-26 17:27N 31°42' E 121°10'6110166627.6
2016-Jul-26 17:25N 33°37' W 117°55'61106742.7
2016-Jul-26 16:30N 31°42' E 121°10'4531513.0
2016-Jul-26 16:12N 24°35' E 118°21'373552.8
2016-Jul-26 15:32N 29°54' E 121°59'6132329459.7
2016-Jul-26 15:31N 33°37' W 117°55'6110177377.7
2016-Jul-26 15:29N 31°42' E 121°10'0 0.0
2016-Jul-26 14:21N 31°42' E 121°10'0 0.0
2016-Jul-26 13:31N 31°42' E 121°10'0 0.0
2016-Jul-26 12:14N 31°42' E 121°10'0 0.1
2016-Jul-26 11:19N 31°42' E 121°09'12568.6
2016-Jul-26 09:30N 29°45' E 121°58'125355.8
2016-Jul-26 09:09N 31°42' E 121°09'125212.6
2016-Jul-26 08:33N 29°45' E 121°58'1258648.7
2016-Jul-26 08:33N 31°42' E 121°09'116556.1
2016-Jul-26 08:20N 29°54' E 121°59'11015291.9
2016-Jul-26 08:20N 31°38' E 121°16'115675.0
2016-Jul-26 08:09N 29°56' E 122°19'111183.4
2016-Jul-26 07:33N 31°35' E 121°20'1155164.0
2016-Jul-26 07:32N 29°45' E 121°58'1251093.4
2016-Jul-26 07:25N 31°42' E 121°10'1719.9
2016-Jul-26 06:33N 31°31' E 121°24'1101478.2
2016-Jul-26 06:29N 29°45' E 121°58'125127.3
2016-Jul-26 05:30N 31°42' E 121°10'23695.9
2016-Jul-26 05:28N 31°27' E 121°30'6 6.4
2016-Jul-26 04:33N 31°23' E 121°34'3177.8
2016-Jul-26 04:32N 31°23' E 121°30'263477.5
2016-Jul-26 04:32N 31°42' E 121°10'4533763.5
2016-Jul-26 04:24N 24°35' E 118°21'0 0.0
2016-Jul-26 03:24N 24°35' E 118°21'453425.3
2016-Jul-26 02:21N 31°42' E 121°10'32309.5
2016-Jul-26 02:14N 31°15' E 121°30'3234.9
2016-Jul-26 01:19N 31°42' E 121°10'1223774.5
2016-Jul-26 01:17N 29°56' E 122°19'122148.7
2016-Jul-26 00:28N 31°42' E 121°10'291223.5
2016-Jul-26 00:26N 31°21' E 121°31'941974.9
2016-Jul-26 00:23N 29°56' E 122°19'629754.2
2016-Jul-25 23:33N 23°02' E 113°31'682149011.7
2016-Jul-25 23:25N 33°37' W 117°55'610355765.2
2016-Jul-25 23:18N 31°26' E 121°29'951307.6
2016-Jul-25 23:14N 29°54' E 121°59'614897.7
2016-Jul-25 22:33N 23°06' E 113°27'6149170.5
2016-Jul-25 22:29N 29°54' E 121°59'614654.1
2016-Jul-25 21:33N 23°06' E 113°27'0 0.0
2016-Jul-25 20:33N 23°06' E 113°27'2841158.6
2016-Jul-25 20:18N 24°35' E 118°21'7575525.6
2016-Jul-25 20:10N 36°42' E 122°23'9401534.3
2016-Jul-25 19:33N 23°06' E 113°27'943113175.1
2016-Jul-25 19:33N 36°45' E 122°26'76017876.4
2016-Jul-25 19:30N 24°35' E 118°21'4534084.4
2016-Jul-25 19:24N 31°42' E 121°09'11611980.9
2016-Jul-25 19:23N 29°54' E 121°59'416502.9
2016-Jul-25 18:33N 36°49' E 122°31'949379498.6
2016-Jul-25 18:33N 23°06' E 113°27'2841131.6
2016-Jul-25 18:18N 24°35' E 118°21'4532130.0
2016-Jul-25 18:06N 31°42' E 121°10'319592.9
2016-Jul-25 17:33N 36°53' E 122°36'95571590.2
2016-Jul-25 17:32N 23°06' E 113°27'6601893.7
2016-Jul-25 17:12N 31°42' E 121°10'6601039.6
2016-Jul-25 16:33N 23°06' E 113°27'960432177.6
2016-Jul-25 16:33N 36°59' E 122°39'3254585.1
2016-Jul-25 16:29N 31°42' E 121°10'1226438.9
2016-Jul-25 16:28N 29°56' E 122°19'3851065.1
2016-Jul-25 16:06N 24°35' E 118°21'7811427.3
2016-Jul-25 15:33N 37°04' E 122°40'96593922.5
2016-Jul-25 15:33N 23°06' E 113°27'6605056.6
2016-Jul-25 15:25N 31°42' E 121°10'660767.9
2016-Jul-25 14:33N 23°06' E 113°27'970268605.3
2016-Jul-25 14:33N 37°09' E 122°41'3351333.4
2016-Jul-25 14:18N 31°42' E 121°10'660860.4
2016-Jul-25 13:32N 23°06' E 113°26'6602938.6
2016-Jul-25 13:19N 31°42' E 121°10'660876.2
2016-Jul-25 12:33N 23°06' E 113°26'6601436.3
2016-Jul-25 12:06N 31°42' E 121°09'6601221.5
2016-Jul-25 11:33N 23°06' E 113°26'0 0.0
2016-Jul-25 10:28N 23°06' E 113°26'0 0.0
2016-Jul-25 09:33N 23°06' E 113°26'6148342.1
2016-Jul-25 09:29N 29°54' E 121°59'11615530.0
2016-Jul-25 09:29N 31°42' E 121°09'4536292.0
2016-Jul-25 09:24N 24°35' E 118°21'3801068.3
2016-Jul-25 09:03N 29°54' E 122°13'6231269.5
2016-Jul-25 08:33N 23°04' E 113°29'62047493.6
2016-Jul-25 08:33N 29°55' E 122°08'621628.9
2016-Jul-25 07:33N 23°01' E 113°32'66170024.3
2016-Jul-25 07:33N 31°42' E 121°09'11616039.2
2016-Jul-25 07:32N 29°56' E 122°02'617617.9
2016-Jul-25 06:32N 23°01' E 113°32'61741144.6
2016-Jul-25 06:32N 29°51' E 122°07'975439.8
2016-Jul-25 06:31N 31°21' E 121°27'2692975.9
2016-Jul-25 06:31N 31°42' E 121°10'2627.2
2016-Jul-25 05:34N 31°21' E 121°27'0 0.1
2016-Jul-25 04:33N 31°21' E 121°27'7422228.3
2016-Jul-25 04:33N 31°57' E 120°10'522271.2
2016-Jul-25 04:32N 31°42' E 121°10'1169740.8
2016-Jul-25 04:31N 29°54' E 121°59'373369.1
2016-Jul-25 03:30N 24°35' E 118°21'12413171.2
2016-Jul-25 03:30N 23°07' E 116°45'5666819.2
2016-Jul-25 03:25N 31°42' E 121°10'52626.2
2016-Jul-25 03:20N 31°57' E 120°10'615156779.4
2016-Jul-25 03:13N 33°37' W 117°55'66398289.5
2016-Jul-25 02:25N 23°12' E 116°51'184196.2
2016-Jul-25 01:29N 23°01' E 113°32'0 0.0
2016-Jul-25 00:33N 23°01' E 113°32'6612736.6
2016-Jul-25 00:19N 31°42' E 121°10'2 9.0
2016-Jul-25 00:07N 31°41' E 121°11'6611170.6
2016-Jul-24 23:33N 23°01' E 113°32'100714327.0
2016-Jul-24 23:29N 38°31' E 121°01'10071087.9
2016-Jul-24 22:33N 23°01' E 113°32'61417404.2
2016-Jul-24 22:31N 29°54' E 121°59'614634.4
2016-Jul-24 21:33N 23°01' E 113°32'0 0.0
2016-Jul-24 20:32N 23°01' E 113°32'61458166.8
2016-Jul-24 20:31N 29°54' E 121°59'44317709.9
2016-Jul-24 20:29N 23°39' E 117°35'5195260.5
2016-Jul-24 20:23N 31°42' E 121°10'661774.6
2016-Jul-24 19:32N 23°01' E 113°32'6142749.2
2016-Jul-24 19:19N 29°54' E 121°59'105137.9
2016-Jul-24 18:33N 31°34' E 121°20'6607668.9
2016-Jul-24 18:28N 23°01' E 113°32'62934291.0
2016-Jul-24 18:27N 29°56' E 122°19'122732.6
2016-Jul-24 18:17N 31°42' E 121°09'661896.0
2016-Jul-24 17:33N 23°01' E 113°32'6614623.3
2016-Jul-24 17:24N 31°42' E 121°10'21126.8
2016-Jul-24 17:14N 31°28' E 121°27'661948.9
2016-Jul-24 16:32N 23°01' E 113°32'66057990.4
2016-Jul-24 16:32N 31°25' E 121°31'98296.4
2016-Jul-24 16:12N 29°56' E 122°19'629973.8
2016-Jul-24 15:33N 23°01' E 113°32'6296715.7
2016-Jul-24 15:28N 29°56' E 122°19'122799.0
2016-Jul-24 15:18N 31°42' E 121°10'661883.5
2016-Jul-24 14:33N 23°01' E 113°32'2631150.7
2016-Jul-24 14:20N 24°07' E 118°09'4823412.5
2016-Jul-24 14:11N 31°42' E 121°10'661404.5
2016-Jul-24 12:33N 23°01' E 113°32'6612378.4
2016-Jul-24 12:17N 31°42' E 121°10'661909.4
2016-Jul-24 11:33N 23°01' E 113°32'0 0.0
2016-Jul-24 10:33N 23°01' E 113°32'6144815.2
2016-Jul-24 10:25N 29°54' E 121°59'3783550.8
2016-Jul-24 10:18N 24°24' E 118°31'287378.6
2016-Jul-24 09:33N 23°01' E 113°32'66125599.4
2016-Jul-24 09:31N 31°42' E 121°09'29527.7
2016-Jul-24 09:28N 32°01' E 120°42'3361317.2
2016-Jul-24 09:13N 37°35' E 121°26'353524.9
2016-Jul-24 08:33N 31°42' E 121°09'66152906.2
2016-Jul-24 08:32N 23°01' E 113°32'112535206.4
2016-Jul-24 08:30N 40°17' E 122°05'536558.8
2016-Jul-24 07:32N 31°22' E 121°30'65778860.8
2016-Jul-24 07:32N 23°01' E 113°32'629174082.2
2016-Jul-24 07:32N 29°56' E 122°19'1766.7
2016-Jul-24 07:16N 29°54' E 121°59'352490.1
2016-Jul-24 06:33N 24°44' E 118°53'311111950.9
2016-Jul-24 06:33N 23°01' E 113°32'65648185.4
2016-Jul-24 06:32N 31°22' E 121°28'26363.5
2016-Jul-24 06:28N 31°42' E 121°09'661728.7
2016-Jul-24 05:33N 23°01' E 113°32'31754426.5
2016-Jul-24 05:33N 24°48' E 118°58'4307812.4
2016-Jul-24 05:30N 31°42' E 121°10'1221832.0
2016-Jul-24 05:26N 29°56' E 122°19'961614.3
2016-Jul-24 05:22N 31°22' E 121°28'0 0.0
2016-Jul-24 04:33N 31°22' E 121°28'409735413.1
2016-Jul-24 04:33N 24°53' E 119°03'42438135.0
2016-Jul-24 04:33N 31°42' E 121°10'0 0.0
2016-Jul-24 03:29N 31°42' E 121°10'26363.4
2016-Jul-24 03:24N 31°22' E 121°28'54202.9
2016-Jul-24 03:08N 32°01' E 120°45'5487.8
2016-Jul-24 02:32N 31°22' E 121°28'26382.7
2016-Jul-24 02:28N 31°42' E 121°10'0 0.0
2016-Jul-24 01:32N 31°42' E 121°10'26323.0
2016-Jul-24 01:27N 31°22' E 121°28'92395.0
2016-Jul-24 01:13N 29°54' E 121°59'92129.5
2016-Jul-24 00:30N 31°22' E 121°28'26243.2
2016-Jul-24 00:24N 31°42' E 121°10'3991307.0
2016-Jul-24 00:06N 25°14' E 119°25'311534.7
2016-Jul-23 23:31N 29°54' E 121°59'921397.4
2016-Jul-23 23:27N 31°22' E 121°28'249.6
2016-Jul-23 23:25N 31°22' E 121°30'271165.8
2016-Jul-23 23:23N 31°42' E 121°10'368398.6
2016-Jul-23 22:28N 37°51' E 121°07'3893334.3
2016-Jul-23 22:21N 31°22' E 121°30'226.0
2016-Jul-23 22:17N 31°22' E 121°28'7210429.4
2016-Jul-23 22:17N 31°57' E 120°13'501401.8
2016-Jul-23 22:15N 31°42' E 121°10'373545.6
2016-Jul-23 21:34N 37°55' E 121°01'3949511.7
2016-Jul-23 21:31N 31°22' E 121°30'215.5
2016-Jul-23 21:24N 31°22' E 121°28'92478.0
2016-Jul-23 21:13N 29°54' E 121°59'488744.0
2016-Jul-23 20:34N 37°59' E 120°53'48810838.7
2016-Jul-23 20:31N 29°54' E 121°59'1161690.9
2016-Jul-23 20:27N 31°42' E 121°09'26217.8
2016-Jul-23 20:20N 31°22' E 121°28'2633.9
2016-Jul-23 19:33N 31°42' E 121°09'37854492.9
2016-Jul-23 19:33N 38°00' E 120°44'40010835.1
2016-Jul-23 19:31N 31°22' E 121°28'92229.7
2016-Jul-23 19:07N 29°54' E 121°59'493886.1
2016-Jul-23 18:34N 38°02' E 120°36'3796630.7
2016-Jul-23 18:30N 31°43' E 121°07'28205.9
2016-Jul-23 18:22N 31°22' E 121°28'0 0.0
2016-Jul-23 17:33N 31°22' E 121°28'40581010.1
2016-Jul-23 17:33N 38°03' E 120°26'37822693.7
2016-Jul-23 17:32N 31°46' E 121°01'1236800.3
2016-Jul-23 17:31N 29°54' E 121°59'500436.4
2016-Jul-23 16:22N 38°06' E 120°13'4097915.3
2016-Jul-23 16:19N 31°22' E 121°28'106452.5
2016-Jul-23 16:05N 29°38' E 121°57'154212.7
2016-Jul-23 15:22N 32°00' E 120°48'1402978.9
2016-Jul-23 15:19N 29°54' E 121°59'92635.4
2016-Jul-23 15:10N 31°22' E 121°28'92139.6
2016-Jul-23 14:31N 29°54' E 121°59'1431738.6
2016-Jul-23 14:26N 31°60' E 120°38'1461930.2
2016-Jul-23 14:21N 29°55' E 122°07'936859.0
2016-Jul-23 14:21N 31°22' E 121°28'419533.6
2016-Jul-23 13:33N 38°11' E 119°41'41943051.0
2016-Jul-23 13:33N 31°22' E 121°28'887552.7
2016-Jul-23 13:32N 29°59' E 122°02'5245.6
2016-Jul-23 13:31N 29°54' E 121°59'514536.6
2016-Jul-23 12:33N 38°12' E 119°29'4221828.6
2016-Jul-23 12:20N 31°22' E 121°28'70269.0
2016-Jul-23 12:04N 31°57' E 120°16'151135844.4
2016-Jul-23 12:04N 29°54' E 121°59'154266.7
2016-Jul-23 11:29N 31°56' E 120°10'74783.7
2016-Jul-23 11:24N 31°22' E 121°28'0 0.0
2016-Jul-23 10:32N 31°22' E 121°28'832575.3
2016-Jul-23 10:30N 30°01' E 121°50'2324.0
2016-Jul-23 09:31N 29°38' E 121°57'23542.5
2016-Jul-23 09:29N 30°01' E 121°50'834329.5
2016-Jul-23 09:28N 31°22' E 121°28'921986.8
2016-Jul-23 09:25N 29°54' E 121°59'1012.0
2016-Jul-23 08:33N 30°01' E 121°50'6155663.3
2016-Jul-23 08:27N 22°57' E 113°33'65911564.2
2016-Jul-23 08:24N 31°22' E 121°28'655780.0
2016-Jul-23 07:33N 23°04' E 113°29'65524813.6
2016-Jul-23 07:32N 31°22' E 121°28'83733.6
2016-Jul-23 07:25N 30°01' E 121°50'84423.3
2016-Jul-23 07:13N 31°24' E 121°35'4 6.3
2016-Jul-23 06:33N 31°22' E 121°39'66161044.6
2016-Jul-23 06:33N 23°06' E 113°27'6554910.4
2016-Jul-23 06:25N 31°22' E 121°28'655353.9
2016-Jul-23 04:34N 23°06' E 113°27'65515609.0
2016-Jul-23 04:31N 31°22' E 121°28'87657.3
2016-Jul-23 04:23N 29°57' E 121°52'86437.4
2016-Jul-23 04:11N 31°21' E 121°31'6561039.3
2016-Jul-23 03:33N 23°06' E 113°27'61484965.6
2016-Jul-23 03:33N 29°54' E 121°59'9236725.9
2016-Jul-23 03:33N 31°22' E 121°30'922391.1
2016-Jul-23 03:31N 29°54' E 121°59'9216492.5
2016-Jul-23 03:30N 31°22' E 121°28'0 0.0
2016-Jul-23 02:33N 31°22' E 121°28'2677.4
2016-Jul-23 02:33N 31°22' E 121°30'656590731.2
2016-Jul-23 02:33N 23°06' E 113°27'0 0.0
2016-Jul-23 01:33N 23°06' E 113°27'65573690.9
2016-Jul-23 01:33N 31°22' E 121°28'217.6
2016-Jul-23 01:28N 31°22' E 121°30'656712.2
2016-Jul-23 00:32N 23°06' E 113°27'65317409.7
2016-Jul-23 00:30N 31°21' E 121°26'610934907.9
2016-Jul-23 00:20N 33°37' W 117°55'613241184.1
2016-Jul-23 00:11N 29°54' E 121°59'0 3.3
2016-Jul-23 00:07N 29°54' E 121°59'6141043.7
2016-Jul-22 23:31N 23°06' E 113°27'6822558137.8
2016-Jul-22 23:31N 33°37' W 117°55'61095564.8
2016-Jul-22 22:25N 31°21' E 121°26'9136509.3
2016-Jul-22 22:25N 29°54' E 121°59'615715.4
2016-Jul-22 21:33N 23°06' E 113°26'654261438.8
2016-Jul-22 21:33N 31°21' E 121°26'654634.2
2016-Jul-22 20:31N 23°06' E 113°26'682375809.6
2016-Jul-22 20:26N 33°37' W 117°55'610930459.8
2016-Jul-22 20:14N 31°21' E 121°26'654958.8
2016-Jul-22 19:33N 23°06' E 113°26'6542074.9
2016-Jul-22 19:14N 31°21' E 121°26'610959437.7
2016-Jul-22 19:08N 33°37' W 117°55'682311929.2
2016-Jul-22 18:33N 23°06' E 113°26'65434100.7
2016-Jul-22 18:32N 31°21' E 121°26'54032313.3
2016-Jul-22 16:12N 49°17' W 122°51'5887883089.9
2016-Jul-22 16:12N 24°35' E 118°21'437668.9
2016-Jul-22 15:32N 31°21' E 121°26'654130719.4
2016-Jul-22 15:32N 23°06' E 113°26'657590882.9
2016-Jul-22 15:32N 31°18' E 121°33'4383109.8
2016-Jul-22 15:24N 24°35' E 118°21'440526.6
2016-Jul-22 14:33N 31°22' E 121°30'65723412.1
2016-Jul-22 14:32N 23°06' E 113°26'65481136.2
2016-Jul-22 14:31N 31°21' E 121°26'91221.6
2016-Jul-22 14:07N 29°54' E 121°59'94169.3
2016-Jul-22 13:33N 31°25' E 121°30'659593525.6
2016-Jul-22 13:33N 23°06' E 113°26'1 0.5
2016-Jul-22 12:33N 23°06' E 113°26'65912620.3
2016-Jul-22 12:30N 31°29' E 121°24'971.8
2016-Jul-22 12:23N 31°21' E 121°26'653786.9
2016-Jul-22 11:33N 23°06' E 113°27'659296428.0
2016-Jul-22 11:33N 31°33' E 121°19'1051127.3
2016-Jul-22 11:28N 29°54' E 121°59'91466.1
2016-Jul-22 11:16N 31°21' E 121°26'2129.1
2016-Jul-22 10:33N 31°39' E 121°14'66033928.3
2016-Jul-22 10:32N 23°06' E 113°27'6142692.4
2016-Jul-22 10:19N 29°54' E 121°59'614809.7
2016-Jul-22 09:33N 23°06' E 113°27'65910837.5
2016-Jul-22 09:29N 31°43' E 121°07'4716916.4
2016-Jul-22 09:29N 31°56' E 120°14'71538.3
2016-Jul-22 09:21N 31°21' E 121°26'653805.6
2016-Jul-22 08:33N 23°06' E 113°26'65335628.0
2016-Jul-22 08:32N 31°21' E 121°26'301588.7
2016-Jul-22 08:31N 31°44' E 121°04'659683.0
2016-Jul-22 07:33N 23°06' E 113°26'65915501.7
2016-Jul-22 07:30N 31°44' E 121°04'30130.1
2016-Jul-22 07:16N 31°21' E 121°26'653239.5
2016-Jul-22 04:33N 23°06' E 113°27'66019638.5
2016-Jul-22 04:31N 31°22' E 121°36'9231.5
2016-Jul-22 04:29N 31°21' E 121°26'30615.1
2016-Jul-22 04:26N 31°44' E 121°04'2831.9
2016-Jul-22 03:33N 31°26' E 121°30'282902.7
2016-Jul-22 03:32N 31°44' E 121°04'65994834.6
2016-Jul-22 03:32N 23°06' E 113°27'65612497.2
2016-Jul-22 03:28N 31°21' E 121°30'418.1
2016-Jul-22 03:15N 31°21' E 121°26'1216.9
2016-Jul-22 02:33N 31°32' E 121°20'658112792.1
2016-Jul-22 02:33N 23°06' E 113°27'65913784.1
2016-Jul-22 02:30N 31°44' E 121°04'30497.2
2016-Jul-22 02:26N 31°21' E 121°26'652.9
2016-Jul-22 02:20N 31°26' E 121°29'1012.3
2016-Jul-22 01:33N 31°32' E 121°20'65838192.5
2016-Jul-22 01:32N 23°05' E 113°27'658672.9
2016-Jul-22 00:34N 31°32' E 121°20'12234.7
2016-Jul-22 00:30N 31°21' E 121°26'65613492.3
2016-Jul-22 00:28N 22°58' E 113°32'6161766.1
2016-Jul-22 00:07N 29°54' E 121°59'103186.7
2016-Jul-21 23:33N 31°32' E 121°20'1232.4
2016-Jul-21 23:11N 31°21' E 121°26'1219.1
2016-Jul-21 22:33N 31°32' E 121°20'12145.2
2016-Jul-21 22:28N 31°21' E 121°26'1048280.6
2016-Jul-21 22:28N 29°42' E 122°02'116127.7
2016-Jul-21 21:33N 31°32' E 121°20'10923146.2
2016-Jul-21 21:33N 29°50' E 122°06'972134.4
2016-Jul-21 21:30N 31°21' E 121°26'5401388871.8
2016-Jul-21 21:29N 49°18' W 122°53'1313.4
2016-Jul-21 20:33N 49°20' W 123°12'538119370602.1
2016-Jul-21 20:33N 31°32' E 121°20'10314298.6
2016-Jul-21 20:33N 29°55' E 122°02'612834472.5
2016-Jul-21 20:22N 33°37' W 117°55'613299431.5
2016-Jul-21 20:19N 29°54' E 121°59'913286.6
2016-Jul-21 20:17N 31°21' E 121°26'53867440.7
2016-Jul-21 19:33N 49°20' W 123°12'53811210752.3
2016-Jul-21 19:33N 31°32' E 121°20'610774781.6
2016-Jul-21 19:28N 33°37' W 117°55'610923622.0
2016-Jul-21 19:13N 31°21' E 121°26'1218.5
2016-Jul-21 18:33N 31°32' E 121°20'122569.0
2016-Jul-21 18:33N 31°21' E 121°26'4091275.5
2016-Jul-21 18:14N 38°06' E 120°20'5 7.9
2016-Jul-21 17:33N 38°04' E 120°27'39865203.5
2016-Jul-21 17:33N 31°29' E 121°27'8246.4
2016-Jul-21 17:31N 31°21' E 121°26'66213.5
2016-Jul-21 17:12N 32°00' E 120°24'70108.1
2016-Jul-21 16:34N 31°24' E 121°34'402289222.7
2016-Jul-21 16:33N 38°03' E 120°37'8 7.9
2016-Jul-21 15:33N 38°01' E 120°46'40272303.5
2016-Jul-21 15:33N 31°21' E 121°26'539461059.1
2016-Jul-21 15:28N 49°18' W 123°03'9692933.5
2016-Jul-21 15:08N 33°37' W 117°55'59029845.6
2016-Jul-21 14:32N 37°59' E 120°56'399392.5
2016-Jul-21 13:31N 31°21' E 121°26'0 0.0
2016-Jul-21 12:33N 31°21' E 121°26'9173.8
2016-Jul-21 11:19N 29°54' E 121°59'1035102.7
2016-Jul-21 11:17N 31°32' E 121°21'1214.7
2016-Jul-21 10:28N 31°21' E 121°26'92101.7
2016-Jul-21 09:33N 29°55' E 122°06'928713.0
2016-Jul-21 09:33N 31°21' E 121°26'91209.8
2016-Jul-21 09:07N 29°54' E 121°59'91144.0
2016-Jul-21 08:28N 31°21' E 121°26'91250.1
2016-Jul-21 08:07N 29°54' E 121°59'9157.1
2016-Jul-21 06:31N 31°21' E 121°26'91164320.8
2016-Jul-21 06:31N 29°54' E 121°59'613214077.7
2016-Jul-21 06:04N 33°37' W 117°55'589210266.6
2016-Jul-21 05:30N 37°36' E 121°25'3755036.4
2016-Jul-21 05:26N 31°21' E 121°26'1517.8
2016-Jul-21 04:33N 31°36' E 121°26'35912324.2
2016-Jul-21 04:32N 37°36' E 121°25'9735552.2
2016-Jul-21 04:21N 22°51' E 113°34'6196750.9
2016-Jul-21 04:16N 29°54' E 121°59'91781.4
2016-Jul-21 04:09N 31°21' E 121°26'67106.4
2016-Jul-21 03:31N 31°59' E 120°20'45623137.2
2016-Jul-21 03:29N 24°35' E 118°20'2818027.0
2016-Jul-21 03:27N 22°58' E 113°32'6575229.4
2016-Jul-21 03:20N 31°21' E 121°26'438561.0
2016-Jul-21 02:33N 24°35' E 118°20'28128095.5
2016-Jul-21 02:32N 23°04' E 113°30'4 3.6
2016-Jul-21 01:33N 23°06' E 113°27'65526776.7
2016-Jul-21 01:31N 31°21' E 121°27'43922261.6
2016-Jul-21 01:30N 24°35' E 118°20'283297.7
2016-Jul-21 00:33N 23°06' E 113°27'6557185.0
2016-Jul-21 00:28N 31°21' E 121°27'655716.3
2016-Jul-20 23:33N 23°06' E 113°27'6822792221.4
2016-Jul-20 23:32N 33°37' W 117°55'61072748085.9
2016-Jul-20 23:32N 31°21' E 121°27'882969.3
2016-Jul-20 23:31N 29°56' E 121°55'612634.7
2016-Jul-20 22:33N 23°06' E 113°27'6551671.4
2016-Jul-20 22:09N 31°21' E 121°27'6551075.1
2016-Jul-20 21:33N 23°06' E 113°27'6557829.6
2016-Jul-20 21:28N 31°21' E 121°27'610772797.1
2016-Jul-20 21:23N 33°37' W 117°55'9675067.5
2016-Jul-20 21:11N 49°18' W 122°54'61919809.4
2016-Jul-20 20:33N 23°06' E 113°27'6182618193.7
2016-Jul-20 20:33N 49°17' W 123°05'539055599.5
2016-Jul-20 20:27N 31°21' E 121°27'53886026.2
2016-Jul-20 19:33N 49°18' W 123°07'6181292798.0
2016-Jul-20 19:32N 23°05' E 113°26'65513799.4
2016-Jul-20 19:29N 31°21' E 121°27'655706.5
2016-Jul-20 18:33N 23°05' E 113°26'61842023988.1
2016-Jul-20 18:33N 49°18' W 123°03'53912772727.1
2016-Jul-20 18:33N 31°21' E 121°27'53925407.2
2016-Jul-20 17:33N 49°18' W 123°02'6185695833.5
2016-Jul-20 17:33N 23°05' E 113°26'65594387.9
2016-Jul-20 17:32N 31°21' E 121°27'922594.2
2016-Jul-20 17:30N 29°54' E 121°59'615645.4
2016-Jul-20 16:33N 23°05' E 113°26'6185494832.1
2016-Jul-20 16:32N 49°18' W 123°02'5392396176.1
2016-Jul-20 16:31N 31°21' E 121°27'92412.9
2016-Jul-20 16:18N 29°54' E 121°59'54497219.8
2016-Jul-20 15:33N 49°18' W 122°53'6192825660.2
2016-Jul-20 15:32N 23°05' E 113°26'6556742.0
2016-Jul-20 15:27N 31°21' E 121°27'655735.3
2016-Jul-20 14:33N 23°05' E 113°26'65511978.2
2016-Jul-20 14:30N 31°21' E 121°27'0 0.0
2016-Jul-20 13:33N 31°21' E 121°27'2580.7
2016-Jul-20 13:33N 31°22' E 121°30'657124540.9
2016-Jul-20 13:32N 23°05' E 113°26'0 0.0
2016-Jul-20 12:33N 23°05' E 113°26'65525103.3
2016-Jul-20 12:32N 31°21' E 121°27'655665.5
2016-Jul-20 11:33N 23°05' E 113°26'0 0.0
2016-Jul-20 10:33N 23°05' E 113°26'6555290.8
2016-Jul-20 10:25N 31°21' E 121°27'92105.7
2016-Jul-20 09:33N 29°54' E 121°59'61558237.1
2016-Jul-20 09:33N 23°05' E 113°26'6557443.9
2016-Jul-20 09:27N 31°21' E 121°27'55151.8
2016-Jul-20 09:06N 32°02' E 120°44'55102.0
2016-Jul-20 08:33N 31°21' E 121°27'655214525.1
2016-Jul-20 08:33N 23°05' E 113°26'682338498.4
2016-Jul-20 08:23N 33°37' W 117°55'6108999533.5
2016-Jul-20 08:22N 31°40' E 121°13'2327.4
2016-Jul-20 07:32N 31°21' E 121°27'655112370.3
2016-Jul-20 07:32N 23°05' E 113°26'6201266.1
2016-Jul-20 07:03N 29°55' E 122°07'6201279.9
2016-Jul-20 06:34N 23°05' E 113°26'623748198.9
2016-Jul-20 06:34N 29°59' E 122°08'90229.1
2016-Jul-20 06:10N 31°21' E 121°27'6551068.7
2016-Jul-20 05:33N 23°05' E 113°26'4 4.2
2016-Jul-20 04:33N 23°03' E 113°30'62319508.1
2016-Jul-20 04:31N 29°59' E 122°08'894280.7
2016-Jul-20 04:30N 31°21' E 121°27'43943869.6
2016-Jul-20 04:29N 24°35' E 118°21'7979495.0
2016-Jul-20 04:24N 37°36' E 121°25'589226186.1
2016-Jul-20 04:11N 33°37' W 117°55'61229887.2
2016-Jul-20 03:34N 29°59' E 122°07'85152565.6
2016-Jul-20 03:33N 31°21' E 121°41'662170287.4
2016-Jul-20 03:33N 23°02' E 113°31'6554182.0
2016-Jul-20 03:24N 31°21' E 121°27'6107314066.2
2016-Jul-20 03:23N 33°37' W 117°55'613230074.5
2016-Jul-20 03:10N 29°54' E 121°59'0 0.1
2016-Jul-20 02:33N 29°54' E 121°59'61378874.6
2016-Jul-20 02:33N 23°02' E 113°31'6554417.4
2016-Jul-20 02:24N 31°21' E 121°27'43952643.5
2016-Jul-20 02:23N 24°35' E 118°21'206494.8
2016-Jul-20 02:23N 24°26' E 118°02'65321119796.3
2016-Jul-20 02:23N 33°37' W 117°55'68408347.5
2016-Jul-20 01:34N 22°08' E 113°47'551031.0
2016-Jul-20 01:30N 23°01' E 113°32'6554599.6
2016-Jul-20 01:22N 31°21' E 121°27'610733159.3
2016-Jul-20 01:11N 33°37' W 117°55'682010745.6
2016-Jul-20 00:33N 23°01' E 113°32'96529957.8
2016-Jul-20 00:31N 37°36' E 121°25'79732219.4
2016-Jul-20 00:29N 24°35' E 118°21'43921342.2
2016-Jul-20 00:28N 31°21' E 121°27'610721241.2
2016-Jul-20 00:11N 33°37' W 117°55'682110624.8
2016-Jul-19 23:32N 23°01' E 113°32'655138806.0
2016-Jul-19 23:32N 31°21' E 121°27'656647.8
2016-Jul-19 22:31N 23°01' E 113°32'656262244.7
2016-Jul-19 22:31N 31°21' E 121°28'656679.5
2016-Jul-19 21:33N 23°01' E 113°32'682192658.0
2016-Jul-19 21:29N 33°37' W 117°55'610755656.6
2016-Jul-19 21:22N 31°22' E 121°28'0 0.0
2016-Jul-19 20:23N 31°21' E 121°28'6556209.4
2016-Jul-19 20:17N 23°01' E 113°32'0 0.0
2016-Jul-19 18:33N 23°01' E 113°32'65578651.8
2016-Jul-19 18:33N 31°21' E 121°28'655642.9
2016-Jul-19 17:31N 23°01' E 113°32'65581363.4
2016-Jul-19 17:31N 31°21' E 121°28'55472.9
2016-Jul-19 17:24N 32°02' E 120°44'663788.0
2016-Jul-19 16:33N 23°01' E 113°32'65763926.5
2016-Jul-19 16:33N 31°22' E 121°29'373301.3
2016-Jul-19 15:18N 37°36' E 121°25'0 0.0
2016-Jul-19 14:33N 37°36' E 121°25'965973.6
2016-Jul-19 13:33N 23°01' E 113°32'659131876.7
2016-Jul-19 13:33N 31°24' E 121°31'532525.7
2016-Jul-19 12:32N 40°16' E 122°06'112353206.4
2016-Jul-19 12:31N 23°01' E 113°32'0 0.0
2016-Jul-19 11:33N 23°01' E 113°32'65910457.7
2016-Jul-19 11:29N 31°24' E 121°31'659708.4
2016-Jul-19 10:33N 23°01' E 113°32'661148622.1
2016-Jul-19 10:33N 31°27' E 121°29'332.9
2016-Jul-19 10:28N 31°28' E 121°26'36714697.9
2016-Jul-19 10:27N 37°36' E 121°25'364406.7
2016-Jul-19 09:33N 31°31' E 121°21'99536.7
2016-Jul-19 09:22N 29°57' E 121°52'3731333.4
2016-Jul-19 09:05N 24°35' E 118°21'373700.7
2016-Jul-19 08:33N 29°54' E 121°59'1093951.0
2016-Jul-19 08:31N 31°36' E 121°16'109112.4
2016-Jul-19 07:33N 29°54' E 121°59'1141828.0
2016-Jul-19 07:30N 31°41' E 121°11'45140625.4
2016-Jul-19 07:29N 24°35' E 118°21'6510121425.2
2016-Jul-19 07:26N 33°37' W 117°55'0 0.0
2016-Jul-19 06:32N 33°37' W 117°55'68203451.9
2016-Jul-19 04:33N 23°01' E 113°32'61431110.5
2016-Jul-19 04:32N 29°54' E 121°59'6132113203.8
2016-Jul-19 04:29N 33°37' W 117°55'609525397.5
2016-Jul-19 04:14N 31°17' E 121°44'841076.6
2016-Jul-19 04:10N 29°54' E 121°59'614986.0
2016-Jul-19 03:32N 23°01' E 113°32'614276107.7
2016-Jul-19 03:32N 29°54' E 121°59'881671.2
2016-Jul-19 03:29N 31°20' E 121°40'4422190.9
2016-Jul-19 03:17N 24°35' E 118°21'281382.8
2016-Jul-19 02:33N 23°01' E 113°32'66176710.6
2016-Jul-19 02:32N 31°23' E 121°35'92506.0
2016-Jul-19 02:22N 29°54' E 121°59'614754.1
2016-Jul-19 01:33N 23°01' E 113°32'6124489.8
2016-Jul-19 01:25N 29°54' E 121°57'612708.6
2016-Jul-19 00:33N 23°01' E 113°32'6122797.3
2016-Jul-19 00:20N 29°54' E 121°57'612778.3
2016-Jul-18 23:32N 23°01' E 113°32'61233397.9
2016-Jul-18 23:31N 29°54' E 121°57'612625.1
2016-Jul-18 22:33N 23°01' E 113°32'61421452.7
2016-Jul-18 22:31N 29°54' E 121°59'2488.2
2016-Jul-18 22:31N 29°54' E 121°57'612628.9
2016-Jul-18 21:32N 23°01' E 113°32'61229003.6
2016-Jul-18 21:31N 29°54' E 121°57'2837.0
2016-Jul-18 21:31N 29°54' E 121°59'2 1.7
2016-Jul-18 20:33N 29°54' E 121°57'612275532.6
2016-Jul-18 20:33N 23°01' E 113°32'0 0.0
2016-Jul-18 19:33N 23°01' E 113°32'612220426.0
2016-Jul-18 19:33N 29°54' E 121°57'2 5.6
2016-Jul-18 19:16N 29°54' E 121°59'2 2.2
2016-Jul-18 18:32N 29°54' E 121°57'61243221.1
2016-Jul-18 18:31N 23°01' E 113°32'661679.5
2016-Jul-18 17:33N 31°23' E 121°35'661476057.7
2016-Jul-18 17:33N 23°01' E 113°32'61253762.8
2016-Jul-18 17:32N 29°54' E 121°57'8989.7
2016-Jul-18 16:33N 31°21' E 121°40'89106282.2
2016-Jul-18 16:33N 29°54' E 121°57'61212111.4
2016-Jul-18 16:30N 23°01' E 113°32'0 0.0
2016-Jul-18 15:33N 23°01' E 113°32'612314892.4
2016-Jul-18 15:33N 29°54' E 121°57'2 3.8
2016-Jul-18 15:07N 29°54' E 121°59'2 2.9
2016-Jul-18 14:33N 29°54' E 121°57'61218679.4
2016-Jul-18 14:31N 23°01' E 113°32'65911139.6
2016-Jul-18 14:28N 31°24' E 121°31'93476.0
2016-Jul-18 14:16N 29°54' E 121°59'614745.0
2016-Jul-18 13:26N 23°01' E 113°32'6121102085.0
2016-Jul-18 13:26N 29°54' E 121°57'0 0.0
2016-Jul-18 12:33N 29°54' E 121°57'6125925.1
2016-Jul-18 12:27N 23°01' E 113°32'612683.0
2016-Jul-18 11:33N 29°54' E 121°57'6129419.5
2016-Jul-18 11:29N 23°01' E 113°32'0 0.0
2016-Jul-18 10:33N 23°01' E 113°32'61211361.7
2016-Jul-18 10:29N 29°54' E 121°57'612654.8
2016-Jul-18 09:33N 23°01' E 113°32'61218522.4
2016-Jul-18 09:31N 29°54' E 121°57'892.0
2016-Jul-18 09:26N 29°55' E 122°07'8 9.7
2016-Jul-18 08:33N 29°54' E 121°57'6126463.8
2016-Jul-18 08:28N 23°01' E 113°32'2 2.2
2016-Jul-18 07:33N 23°03' E 113°31'61250049.5
2016-Jul-18 07:33N 29°54' E 121°57'0 0.0
2016-Jul-18 06:29N 29°54' E 121°57'6124645.9
2016-Jul-18 06:21N 23°03' E 113°31'6626809.3
2016-Jul-18 06:16N 32°02' E 120°44'27186.9
2016-Jul-18 06:07N 31°57' E 120°13'152269.5
2016-Jul-18 05:33N 29°54' E 121°57'6128635.9
2016-Jul-18 05:29N 23°03' E 113°31'64417698.0
2016-Jul-18 05:27N 31°57' E 120°16'4547528.2
2016-Jul-18 05:23N 24°35' E 118°21'372447.1
2016-Jul-18 04:33N 29°54' E 121°57'0 0.0
2016-Jul-18 03:32N 29°54' E 121°57'6129214.1
2016-Jul-18 03:28N 23°03' E 113°31'282944.6
2016-Jul-18 03:10N 24°35' E 118°22'282438.6
2016-Jul-18 02:32N 23°03' E 113°31'612115903.4
2016-Jul-18 02:32N 29°54' E 121°57'3696964.3
2016-Jul-18 02:28N 24°35' E 118°27'3783930.6
2016-Jul-18 02:23N 29°56' E 122°11'622755.6
2016-Jul-18 01:33N 23°03' E 113°31'6138268.0
2016-Jul-18 01:29N 29°54' E 121°59'373980.1
2016-Jul-18 01:06N 24°33' E 118°26'372670.3
2016-Jul-18 00:33N 29°54' E 121°57'61226532.3
2016-Jul-18 00:31N 23°03' E 113°31'6131390.2
2016-Jul-18 00:05N 29°54' E 121°59'91171.1
2016-Jul-17 23:33N 31°23' E 121°37'662119085.8
2016-Jul-17 23:33N 23°03' E 113°31'61233879.7
2016-Jul-17 23:31N 29°54' E 121°57'3728989.5
2016-Jul-17 23:29N 24°33' E 118°25'284306.0
2016-Jul-17 22:33N 23°03' E 113°31'  

Dump ship's entire track history